<?xml version="1.0" encoding="UTF-8"?><gpx creator="Wikiloc - https://www.wikiloc.com" version="1.1" xmlns="http://www.topografix.com/GPX/1/1" xmlns:xsi="http://www.w3.org/2001/XMLSchema-instance" xsi:schemaLocation="http://www.topografix.com/GPX/1/1 http://www.topografix.com/GPX/1/1/gpx.xsd"><wpt lat="40.196576" lon="-5.806684"><ele>0.0</ele><time>2015-09-28T17:07:07Z</time><name>Cabezuela del Valle</name><cmt></cmt><desc></desc></wpt><wpt lat="40.221821" lon="-5.871768"><ele>0.0</ele><time>2015-09-28T17:07:25Z</time><name>Puerto de Honduras</name><cmt></cmt><desc></desc></wpt><wpt lat="40.247386" lon="-5.919164"><ele>0.0</ele><time>2015-09-28T17:53:02Z</time><name>Gargantilla</name><cmt></cmt><desc></desc></wpt><wpt lat="40.210869" lon="-5.841082"><ele>0.0</ele><time>2015-09-28T17:55:36Z</time><name>Puente</name><cmt></cmt><desc></desc></wpt><trk><name>PR-CC 10 'Ruta de las Juderías' (Cabezuela del Valle - Garga...</name><cmt></cmt><desc></desc><trkseg><trkpt lat="40.196649" lon="-5.806871"><ele>497.7</ele><time>2014-07-07T05:00:21Z</time></trkpt><trkpt lat="40.196640" lon="-5.806980"><ele>520.6</ele><time>2014-07-07T05:00:38Z</time></trkpt><trkpt lat="40.196570" lon="-5.807150"><ele>523.0</ele><time>2014-07-07T05:00:55Z</time></trkpt><trkpt lat="40.196540" lon="-5.807320"><ele>526.4</ele><time>2014-07-07T05:01:12Z</time></trkpt><trkpt lat="40.196550" lon="-5.807460"><ele>528.5</ele><time>2014-07-07T05:01:29Z</time></trkpt><trkpt lat="40.196570" lon="-5.807660"><ele>531.9</ele><time>2014-07-07T05:01:46Z</time></trkpt><trkpt lat="40.196540" lon="-5.807820"><ele>533.1</ele><time>2014-07-07T05:02:03Z</time></trkpt><trkpt lat="40.196450" lon="-5.808030"><ele>537.1</ele><time>2014-07-07T05:02:20Z</time></trkpt><trkpt lat="40.196330" lon="-5.808260"><ele>540.4</ele><time>2014-07-07T05:02:37Z</time></trkpt><trkpt lat="40.196260" lon="-5.808410"><ele>543.2</ele><time>2014-07-07T05:02:54Z</time></trkpt><trkpt lat="40.196180" lon="-5.808590"><ele>546.2</ele><time>2014-07-07T05:03:11Z</time></trkpt><trkpt lat="40.196110" lon="-5.808800"><ele>550.2</ele><time>2014-07-07T05:03:28Z</time></trkpt><trkpt lat="40.196110" lon="-5.809020"><ele>552.9</ele><time>2014-07-07T05:03:45Z</time></trkpt><trkpt lat="40.196110" lon="-5.809100"><ele>553.8</ele><time>2014-07-07T05:04:02Z</time></trkpt><trkpt lat="40.196140" lon="-5.809400"><ele>557.2</ele><time>2014-07-07T05:04:19Z</time></trkpt><trkpt lat="40.196170" lon="-5.809630"><ele>560.5</ele><time>2014-07-07T05:04:36Z</time></trkpt><trkpt lat="40.196210" lon="-5.809900"><ele>563.6</ele><time>2014-07-07T05:04:53Z</time></trkpt><trkpt lat="40.196280" lon="-5.810220"><ele>566.9</ele><time>2014-07-07T05:05:10Z</time></trkpt><trkpt lat="40.196280" lon="-5.810480"><ele>569.7</ele><time>2014-07-07T05:05:27Z</time></trkpt><trkpt lat="40.196240" lon="-5.810790"><ele>573.0</ele><time>2014-07-07T05:05:44Z</time></trkpt><trkpt lat="40.196220" lon="-5.811040"><ele>576.1</ele><time>2014-07-07T05:06:01Z</time></trkpt><trkpt lat="40.196240" lon="-5.811180"><ele>578.8</ele><time>2014-07-07T05:06:18Z</time></trkpt><trkpt lat="40.196270" lon="-5.811320"><ele>582.2</ele><time>2014-07-07T05:06:35Z</time></trkpt><trkpt lat="40.196320" lon="-5.811490"><ele>585.2</ele><time>2014-07-07T05:06:52Z</time></trkpt><trkpt lat="40.196340" lon="-5.811600"><ele>588.6</ele><time>2014-07-07T05:07:09Z</time></trkpt><trkpt lat="40.196320" lon="-5.811750"><ele>591.3</ele><time>2014-07-07T05:07:26Z</time></trkpt><trkpt lat="40.196280" lon="-5.811900"><ele>594.7</ele><time>2014-07-07T05:07:43Z</time></trkpt><trkpt lat="40.196270" lon="-5.812020"><ele>597.1</ele><time>2014-07-07T05:08:00Z</time></trkpt><trkpt lat="40.196260" lon="-5.812130"><ele>600.5</ele><time>2014-07-07T05:08:17Z</time></trkpt><trkpt lat="40.196250" lon="-5.812310"><ele>603.5</ele><time>2014-07-07T05:08:34Z</time></trkpt><trkpt lat="40.196210" lon="-5.812470"><ele>605.6</ele><time>2014-07-07T05:08:51Z</time></trkpt><trkpt lat="40.196200" lon="-5.812630"><ele>607.2</ele><time>2014-07-07T05:09:08Z</time></trkpt><trkpt lat="40.196230" lon="-5.812800"><ele>610.5</ele><time>2014-07-07T05:09:25Z</time></trkpt><trkpt lat="40.196270" lon="-5.813030"><ele>613.9</ele><time>2014-07-07T05:09:42Z</time></trkpt><trkpt lat="40.196280" lon="-5.813200"><ele>616.9</ele><time>2014-07-07T05:09:59Z</time></trkpt><trkpt lat="40.196290" lon="-5.813400"><ele>620.3</ele><time>2014-07-07T05:10:16Z</time></trkpt><trkpt lat="40.196350" lon="-5.813570"><ele>623.0</ele><time>2014-07-07T05:10:33Z</time></trkpt><trkpt lat="40.196380" lon="-5.813720"><ele>626.1</ele><time>2014-07-07T05:10:50Z</time></trkpt><trkpt lat="40.196350" lon="-5.813770"><ele>626.4</ele><time>2014-07-07T05:11:07Z</time></trkpt><trkpt lat="40.196310" lon="-5.813920"><ele>627.9</ele><time>2014-07-07T05:11:24Z</time></trkpt><trkpt lat="40.196250" lon="-5.814260"><ele>628.5</ele><time>2014-07-07T05:11:41Z</time></trkpt><trkpt lat="40.196170" lon="-5.814520"><ele>630.6</ele><time>2014-07-07T05:11:58Z</time></trkpt><trkpt lat="40.196090" lon="-5.814790"><ele>632.2</ele><time>2014-07-07T05:12:15Z</time></trkpt><trkpt lat="40.196000" lon="-5.815060"><ele>634.3</ele><time>2014-07-07T05:12:32Z</time></trkpt><trkpt lat="40.195950" lon="-5.815180"><ele>635.5</ele><time>2014-07-07T05:12:49Z</time></trkpt><trkpt lat="40.195860" lon="-5.815410"><ele>638.6</ele><time>2014-07-07T05:13:06Z</time></trkpt><trkpt lat="40.195730" lon="-5.815700"><ele>641.3</ele><time>2014-07-07T05:13:23Z</time></trkpt><trkpt lat="40.195750" lon="-5.815790"><ele>642.8</ele><time>2014-07-07T05:13:40Z</time></trkpt><trkpt lat="40.195790" lon="-5.816080"><ele>645.3</ele><time>2014-07-07T05:13:57Z</time></trkpt><trkpt lat="40.195880" lon="-5.816260"><ele>645.3</ele><time>2014-07-07T05:14:14Z</time></trkpt><trkpt lat="40.196050" lon="-5.816540"><ele>642.2</ele><time>2014-07-07T05:14:31Z</time></trkpt><trkpt lat="40.196310" lon="-5.816760"><ele>640.4</ele><time>2014-07-07T05:14:48Z</time></trkpt><trkpt lat="40.196420" lon="-5.816850"><ele>638.6</ele><time>2014-07-07T05:15:05Z</time></trkpt><trkpt lat="40.196720" lon="-5.817050"><ele>637.9</ele><time>2014-07-07T05:15:22Z</time></trkpt><trkpt lat="40.196970" lon="-5.817200"><ele>638.9</ele><time>2014-07-07T05:15:39Z</time></trkpt><trkpt lat="40.197270" lon="-5.817360"><ele>636.4</ele><time>2014-07-07T05:15:56Z</time></trkpt><trkpt lat="40.197550" lon="-5.817570"><ele>636.4</ele><time>2014-07-07T05:16:13Z</time></trkpt><trkpt lat="40.197820" lon="-5.817740"><ele>637.6</ele><time>2014-07-07T05:16:30Z</time></trkpt><trkpt lat="40.198140" lon="-5.817810"><ele>640.4</ele><time>2014-07-07T05:16:47Z</time></trkpt><trkpt lat="40.198390" lon="-5.817950"><ele>641.3</ele><time>2014-07-07T05:17:04Z</time></trkpt><trkpt lat="40.198400" lon="-5.817970"><ele>641.0</ele><time>2014-07-07T05:17:21Z</time></trkpt><trkpt lat="40.198580" lon="-5.818110"><ele>641.3</ele><time>2014-07-07T05:17:38Z</time></trkpt><trkpt lat="40.198830" lon="-5.818310"><ele>641.9</ele><time>2014-07-07T05:17:55Z</time></trkpt><trkpt lat="40.199050" lon="-5.818530"><ele>642.8</ele><time>2014-07-07T05:18:12Z</time></trkpt><trkpt lat="40.199070" lon="-5.818540"><ele>643.1</ele><time>2014-07-07T05:18:29Z</time></trkpt><trkpt lat="40.199340" lon="-5.818730"><ele>644.7</ele><time>2014-07-07T05:18:46Z</time></trkpt><trkpt lat="40.199570" lon="-5.818860"><ele>646.2</ele><time>2014-07-07T05:19:03Z</time></trkpt><trkpt lat="40.199680" lon="-5.819080"><ele>649.5</ele><time>2014-07-07T05:19:20Z</time></trkpt><trkpt lat="40.199660" lon="-5.819140"><ele>650.1</ele><time>2014-07-07T05:19:37Z</time></trkpt><trkpt lat="40.199650" lon="-5.819210"><ele>651.1</ele><time>2014-07-07T05:19:54Z</time></trkpt><trkpt lat="40.199620" lon="-5.819380"><ele>652.9</ele><time>2014-07-07T05:20:11Z</time></trkpt><trkpt lat="40.199600" lon="-5.819430"><ele>653.5</ele><time>2014-07-07T05:20:28Z</time></trkpt><trkpt lat="40.199600" lon="-5.819460"><ele>653.5</ele><time>2014-07-07T05:20:45Z</time></trkpt><trkpt lat="40.199540" lon="-5.819780"><ele>655.6</ele><time>2014-07-07T05:21:02Z</time></trkpt><trkpt lat="40.199610" lon="-5.820120"><ele>658.1</ele><time>2014-07-07T05:21:19Z</time></trkpt><trkpt lat="40.199740" lon="-5.820450"><ele>658.1</ele><time>2014-07-07T05:21:36Z</time></trkpt><trkpt lat="40.199870" lon="-5.820800"><ele>658.1</ele><time>2014-07-07T05:21:53Z</time></trkpt><trkpt lat="40.199970" lon="-5.821200"><ele>657.8</ele><time>2014-07-07T05:22:10Z</time></trkpt><trkpt lat="40.199970" lon="-5.821620"><ele>657.8</ele><time>2014-07-07T05:22:27Z</time></trkpt><trkpt lat="40.200030" lon="-5.822030"><ele>659.6</ele><time>2014-07-07T05:22:44Z</time></trkpt><trkpt lat="40.200110" lon="-5.822320"><ele>659.6</ele><time>2014-07-07T05:23:01Z</time></trkpt><trkpt lat="40.200290" lon="-5.822650"><ele>659.6</ele><time>2014-07-07T05:23:18Z</time></trkpt><trkpt lat="40.200520" lon="-5.822700"><ele>661.1</ele><time>2014-07-07T05:23:35Z</time></trkpt><trkpt lat="40.200710" lon="-5.822550"><ele>664.5</ele><time>2014-07-07T05:23:52Z</time></trkpt><trkpt lat="40.200740" lon="-5.822520"><ele>665.4</ele><time>2014-07-07T05:24:09Z</time></trkpt><trkpt lat="40.200790" lon="-5.822370"><ele>667.2</ele><time>2014-07-07T05:24:26Z</time></trkpt><trkpt lat="40.200890" lon="-5.822130"><ele>670.3</ele><time>2014-07-07T05:24:43Z</time></trkpt><trkpt lat="40.200990" lon="-5.821810"><ele>672.1</ele><time>2014-07-07T05:25:00Z</time></trkpt><trkpt lat="40.201150" lon="-5.821400"><ele>672.1</ele><time>2014-07-07T05:25:17Z</time></trkpt><trkpt lat="40.201420" lon="-5.821110"><ele>671.2</ele><time>2014-07-07T05:25:34Z</time></trkpt><trkpt lat="40.201670" lon="-5.820960"><ele>669.6</ele><time>2014-07-07T05:25:51Z</time></trkpt><trkpt lat="40.201770" lon="-5.820930"><ele>669.6</ele><time>2014-07-07T05:26:08Z</time></trkpt><trkpt lat="40.201830" lon="-5.820980"><ele>669.6</ele><time>2014-07-07T05:26:25Z</time></trkpt><trkpt lat="40.201870" lon="-5.821010"><ele>669.6</ele><time>2014-07-07T05:26:42Z</time></trkpt><trkpt lat="40.201860" lon="-5.821180"><ele>670.6</ele><time>2014-07-07T05:26:59Z</time></trkpt><trkpt lat="40.201850" lon="-5.821510"><ele>673.0</ele><time>2014-07-07T05:27:16Z</time></trkpt><trkpt lat="40.201890" lon="-5.821820"><ele>676.0</ele><time>2014-07-07T05:27:33Z</time></trkpt><trkpt lat="40.201950" lon="-5.822080"><ele>679.4</ele><time>2014-07-07T05:27:50Z</time></trkpt><trkpt lat="40.202040" lon="-5.822340"><ele>682.8</ele><time>2014-07-07T05:28:07Z</time></trkpt><trkpt lat="40.202070" lon="-5.822440"><ele>684.3</ele><time>2014-07-07T05:28:24Z</time></trkpt><trkpt lat="40.202080" lon="-5.822500"><ele>684.6</ele><time>2014-07-07T05:28:41Z</time></trkpt><trkpt lat="40.202170" lon="-5.822860"><ele>687.6</ele><time>2014-07-07T05:28:58Z</time></trkpt><trkpt lat="40.202260" lon="-5.823160"><ele>690.4</ele><time>2014-07-07T05:29:15Z</time></trkpt><trkpt lat="40.202470" lon="-5.823360"><ele>689.8</ele><time>2014-07-07T05:29:32Z</time></trkpt><trkpt lat="40.202710" lon="-5.823650"><ele>689.8</ele><time>2014-07-07T05:29:49Z</time></trkpt><trkpt lat="40.202720" lon="-5.823980"><ele>692.8</ele><time>2014-07-07T05:30:06Z</time></trkpt><trkpt lat="40.202760" lon="-5.824170"><ele>694.6</ele><time>2014-07-07T05:30:23Z</time></trkpt><trkpt lat="40.202830" lon="-5.824290"><ele>696.8</ele><time>2014-07-07T05:30:40Z</time></trkpt><trkpt lat="40.202860" lon="-5.824320"><ele>696.8</ele><time>2014-07-07T05:30:57Z</time></trkpt><trkpt lat="40.202970" lon="-5.824460"><ele>698.6</ele><time>2014-07-07T05:31:14Z</time></trkpt><trkpt lat="40.203220" lon="-5.824670"><ele>700.4</ele><time>2014-07-07T05:31:31Z</time></trkpt><trkpt lat="40.203440" lon="-5.824950"><ele>700.1</ele><time>2014-07-07T05:31:48Z</time></trkpt><trkpt lat="40.203660" lon="-5.825210"><ele>701.3</ele><time>2014-07-07T05:32:05Z</time></trkpt><trkpt lat="40.203820" lon="-5.825350"><ele>703.5</ele><time>2014-07-07T05:32:22Z</time></trkpt><trkpt lat="40.203970" lon="-5.825650"><ele>705.6</ele><time>2014-07-07T05:32:39Z</time></trkpt><trkpt lat="40.204050" lon="-5.825780"><ele>709.6</ele><time>2014-07-07T05:32:56Z</time></trkpt><trkpt lat="40.204130" lon="-5.825910"><ele>712.9</ele><time>2014-07-07T05:33:13Z</time></trkpt><trkpt lat="40.204180" lon="-5.826110"><ele>716.0</ele><time>2014-07-07T05:33:30Z</time></trkpt><trkpt lat="40.204210" lon="-5.826270"><ele>719.3</ele><time>2014-07-07T05:33:47Z</time></trkpt><trkpt lat="40.204270" lon="-5.826400"><ele>720.2</ele><time>2014-07-07T05:34:04Z</time></trkpt><trkpt lat="40.204340" lon="-5.826720"><ele>720.2</ele><time>2014-07-07T05:34:21Z</time></trkpt><trkpt lat="40.204300" lon="-5.827220"><ele>720.2</ele><time>2014-07-07T05:34:38Z</time></trkpt><trkpt lat="40.204240" lon="-5.827650"><ele>718.7</ele><time>2014-07-07T05:34:55Z</time></trkpt><trkpt lat="40.204300" lon="-5.828120"><ele>715.4</ele><time>2014-07-07T05:35:12Z</time></trkpt><trkpt lat="40.204340" lon="-5.828530"><ele>713.5</ele><time>2014-07-07T05:35:29Z</time></trkpt><trkpt lat="40.204330" lon="-5.828980"><ele>712.0</ele><time>2014-07-07T05:35:46Z</time></trkpt><trkpt lat="40.204320" lon="-5.829110"><ele>711.4</ele><time>2014-07-07T05:36:03Z</time></trkpt><trkpt lat="40.204310" lon="-5.829200"><ele>710.5</ele><time>2014-07-07T05:36:20Z</time></trkpt><trkpt lat="40.204200" lon="-5.829430"><ele>710.2</ele><time>2014-07-07T05:36:37Z</time></trkpt><trkpt lat="40.204190" lon="-5.829440"><ele>710.2</ele><time>2014-07-07T05:36:54Z</time></trkpt><trkpt lat="40.204220" lon="-5.829470"><ele>710.5</ele><time>2014-07-07T05:37:11Z</time></trkpt><trkpt lat="40.204240" lon="-5.829640"><ele>712.6</ele><time>2014-07-07T05:37:28Z</time></trkpt><trkpt lat="40.204250" lon="-5.829720"><ele>712.9</ele><time>2014-07-07T05:37:45Z</time></trkpt><trkpt lat="40.204260" lon="-5.829780"><ele>713.5</ele><time>2014-07-07T05:38:02Z</time></trkpt><trkpt lat="40.204250" lon="-5.830050"><ele>716.0</ele><time>2014-07-07T05:38:19Z</time></trkpt><trkpt lat="40.204300" lon="-5.830290"><ele>716.9</ele><time>2014-07-07T05:38:36Z</time></trkpt><trkpt lat="40.204380" lon="-5.830480"><ele>720.2</ele><time>2014-07-07T05:38:53Z</time></trkpt><trkpt lat="40.204510" lon="-5.830610"><ele>722.7</ele><time>2014-07-07T05:39:10Z</time></trkpt><trkpt lat="40.204610" lon="-5.830650"><ele>724.5</ele><time>2014-07-07T05:39:27Z</time></trkpt><trkpt lat="40.204640" lon="-5.830680"><ele>725.1</ele><time>2014-07-07T05:39:44Z</time></trkpt><trkpt lat="40.204750" lon="-5.830750"><ele>727.3</ele><time>2014-07-07T05:40:01Z</time></trkpt><trkpt lat="40.204780" lon="-5.830640"><ele>729.4</ele><time>2014-07-07T05:40:18Z</time></trkpt><trkpt lat="40.204760" lon="-5.830280"><ele>733.0</ele><time>2014-07-07T05:40:35Z</time></trkpt><trkpt lat="40.204790" lon="-5.830080"><ele>736.4</ele><time>2014-07-07T05:40:52Z</time></trkpt><trkpt lat="40.204840" lon="-5.829960"><ele>737.9</ele><time>2014-07-07T05:41:09Z</time></trkpt><trkpt lat="40.204890" lon="-5.829930"><ele>741.0</ele><time>2014-07-07T05:41:26Z</time></trkpt><trkpt lat="40.204910" lon="-5.829980"><ele>741.0</ele><time>2014-07-07T05:41:43Z</time></trkpt><trkpt lat="40.204970" lon="-5.830270"><ele>744.3</ele><time>2014-07-07T05:42:00Z</time></trkpt><trkpt lat="40.205070" lon="-5.830430"><ele>747.1</ele><time>2014-07-07T05:42:17Z</time></trkpt><trkpt lat="40.205160" lon="-5.830620"><ele>750.4</ele><time>2014-07-07T05:42:34Z</time></trkpt><trkpt lat="40.205260" lon="-5.830820"><ele>753.5</ele><time>2014-07-07T05:42:51Z</time></trkpt><trkpt lat="40.205380" lon="-5.831020"><ele>756.8</ele><time>2014-07-07T05:43:08Z</time></trkpt><trkpt lat="40.205480" lon="-5.831170"><ele>759.3</ele><time>2014-07-07T05:43:25Z</time></trkpt><trkpt lat="40.205510" lon="-5.831180"><ele>759.6</ele><time>2014-07-07T05:43:42Z</time></trkpt><trkpt lat="40.205630" lon="-5.831360"><ele>762.6</ele><time>2014-07-07T05:43:59Z</time></trkpt><trkpt lat="40.205700" lon="-5.831490"><ele>765.4</ele><time>2014-07-07T05:44:16Z</time></trkpt><trkpt lat="40.205750" lon="-5.831650"><ele>768.1</ele><time>2014-07-07T05:44:33Z</time></trkpt><trkpt lat="40.205790" lon="-5.831800"><ele>771.8</ele><time>2014-07-07T05:44:50Z</time></trkpt><trkpt lat="40.205820" lon="-5.832010"><ele>775.1</ele><time>2014-07-07T05:45:07Z</time></trkpt><trkpt lat="40.205930" lon="-5.832170"><ele>777.8</ele><time>2014-07-07T05:45:24Z</time></trkpt><trkpt lat="40.206050" lon="-5.832260"><ele>780.3</ele><time>2014-07-07T05:45:41Z</time></trkpt><trkpt lat="40.206080" lon="-5.832550"><ele>783.0</ele><time>2014-07-07T05:45:58Z</time></trkpt><trkpt lat="40.206110" lon="-5.832700"><ele>785.5</ele><time>2014-07-07T05:46:15Z</time></trkpt><trkpt lat="40.206210" lon="-5.832770"><ele>788.5</ele><time>2014-07-07T05:46:32Z</time></trkpt><trkpt lat="40.206270" lon="-5.832820"><ele>788.8</ele><time>2014-07-07T05:46:49Z</time></trkpt><trkpt lat="40.206340" lon="-5.832870"><ele>790.3</ele><time>2014-07-07T05:47:06Z</time></trkpt><trkpt lat="40.206380" lon="-5.832930"><ele>791.9</ele><time>2014-07-07T05:47:23Z</time></trkpt><trkpt lat="40.206500" lon="-5.833210"><ele>795.2</ele><time>2014-07-07T05:47:40Z</time></trkpt><trkpt lat="40.206570" lon="-5.833440"><ele>798.6</ele><time>2014-07-07T05:47:57Z</time></trkpt><trkpt lat="40.206640" lon="-5.833620"><ele>801.3</ele><time>2014-07-07T05:48:14Z</time></trkpt><trkpt lat="40.206750" lon="-5.833770"><ele>804.7</ele><time>2014-07-07T05:48:31Z</time></trkpt><trkpt lat="40.206860" lon="-5.833910"><ele>807.7</ele><time>2014-07-07T05:48:48Z</time></trkpt><trkpt lat="40.206990" lon="-5.834030"><ele>810.2</ele><time>2014-07-07T05:49:05Z</time></trkpt><trkpt lat="40.207100" lon="-5.834150"><ele>813.5</ele><time>2014-07-07T05:49:22Z</time></trkpt><trkpt lat="40.207300" lon="-5.834210"><ele>814.7</ele><time>2014-07-07T05:49:39Z</time></trkpt><trkpt lat="40.207460" lon="-5.834360"><ele>818.1</ele><time>2014-07-07T05:49:56Z</time></trkpt><trkpt lat="40.207570" lon="-5.834460"><ele>820.2</ele><time>2014-07-07T05:50:13Z</time></trkpt><trkpt lat="40.207710" lon="-5.834540"><ele>822.0</ele><time>2014-07-07T05:50:30Z</time></trkpt><trkpt lat="40.207860" lon="-5.834730"><ele>825.1</ele><time>2014-07-07T05:50:47Z</time></trkpt><trkpt lat="40.207980" lon="-5.834850"><ele>827.8</ele><time>2014-07-07T05:51:04Z</time></trkpt><trkpt lat="40.208080" lon="-5.835050"><ele>830.6</ele><time>2014-07-07T05:51:21Z</time></trkpt><trkpt lat="40.208110" lon="-5.835300"><ele>833.6</ele><time>2014-07-07T05:51:38Z</time></trkpt><trkpt lat="40.208210" lon="-5.835570"><ele>834.5</ele><time>2014-07-07T05:51:55Z</time></trkpt><trkpt lat="40.208270" lon="-5.835660"><ele>834.5</ele><time>2014-07-07T05:52:12Z</time></trkpt><trkpt lat="40.208370" lon="-5.835820"><ele>834.5</ele><time>2014-07-07T05:52:29Z</time></trkpt><trkpt lat="40.208420" lon="-5.835920"><ele>835.2</ele><time>2014-07-07T05:52:46Z</time></trkpt><trkpt lat="40.208430" lon="-5.835970"><ele>835.5</ele><time>2014-07-07T05:53:03Z</time></trkpt><trkpt lat="40.208360" lon="-5.836160"><ele>838.5</ele><time>2014-07-07T05:53:20Z</time></trkpt><trkpt lat="40.208260" lon="-5.836240"><ele>841.9</ele><time>2014-07-07T05:53:37Z</time></trkpt><trkpt lat="40.208210" lon="-5.836280"><ele>842.2</ele><time>2014-07-07T05:53:54Z</time></trkpt><trkpt lat="40.208070" lon="-5.836330"><ele>846.1</ele><time>2014-07-07T05:54:11Z</time></trkpt><trkpt lat="40.208000" lon="-5.836420"><ele>848.0</ele><time>2014-07-07T05:54:28Z</time></trkpt><trkpt lat="40.208010" lon="-5.836520"><ele>849.5</ele><time>2014-07-07T05:54:45Z</time></trkpt><trkpt lat="40.208160" lon="-5.836550"><ele>851.9</ele><time>2014-07-07T05:55:02Z</time></trkpt><trkpt lat="40.208330" lon="-5.836640"><ele>853.7</ele><time>2014-07-07T05:55:19Z</time></trkpt><trkpt lat="40.208480" lon="-5.836750"><ele>856.8</ele><time>2014-07-07T05:55:36Z</time></trkpt><trkpt lat="40.208630" lon="-5.836830"><ele>859.2</ele><time>2014-07-07T05:55:53Z</time></trkpt><trkpt lat="40.208770" lon="-5.836720"><ele>862.0</ele><time>2014-07-07T05:56:10Z</time></trkpt><trkpt lat="40.208820" lon="-5.836730"><ele>862.6</ele><time>2014-07-07T05:56:27Z</time></trkpt><trkpt lat="40.208850" lon="-5.836970"><ele>865.9</ele><time>2014-07-07T05:56:44Z</time></trkpt><trkpt lat="40.208880" lon="-5.837100"><ele>868.4</ele><time>2014-07-07T05:57:01Z</time></trkpt><trkpt lat="40.208880" lon="-5.837300"><ele>871.7</ele><time>2014-07-07T05:57:18Z</time></trkpt><trkpt lat="40.208860" lon="-5.837460"><ele>874.5</ele><time>2014-07-07T05:57:35Z</time></trkpt><trkpt lat="40.208930" lon="-5.837600"><ele>877.2</ele><time>2014-07-07T05:57:52Z</time></trkpt><trkpt lat="40.208970" lon="-5.837870"><ele>879.7</ele><time>2014-07-07T05:58:09Z</time></trkpt><trkpt lat="40.209120" lon="-5.838140"><ele>881.8</ele><time>2014-07-07T05:58:26Z</time></trkpt><trkpt lat="40.209290" lon="-5.838500"><ele>883.6</ele><time>2014-07-07T05:58:43Z</time></trkpt><trkpt lat="40.209500" lon="-5.838750"><ele>884.5</ele><time>2014-07-07T05:59:00Z</time></trkpt><trkpt lat="40.209700" lon="-5.838890"><ele>887.9</ele><time>2014-07-07T05:59:17Z</time></trkpt><trkpt lat="40.209720" lon="-5.838890"><ele>887.9</ele><time>2014-07-07T05:59:34Z</time></trkpt><trkpt lat="40.209880" lon="-5.839110"><ele>890.9</ele><time>2014-07-07T05:59:51Z</time></trkpt><trkpt lat="40.210040" lon="-5.839250"><ele>893.7</ele><time>2014-07-07T06:00:08Z</time></trkpt><trkpt lat="40.210170" lon="-5.839460"><ele>896.7</ele><time>2014-07-07T06:00:25Z</time></trkpt><trkpt lat="40.210270" lon="-5.839550"><ele>898.9</ele><time>2014-07-07T06:00:42Z</time></trkpt><trkpt lat="40.210320" lon="-5.839500"><ele>899.5</ele><time>2014-07-07T06:00:59Z</time></trkpt><trkpt lat="40.210340" lon="-5.839690"><ele>898.9</ele><time>2014-07-07T06:01:16Z</time></trkpt><trkpt lat="40.210340" lon="-5.839920"><ele>896.7</ele><time>2014-07-07T06:01:33Z</time></trkpt><trkpt lat="40.210360" lon="-5.839940"><ele>896.1</ele><time>2014-07-07T06:01:50Z</time></trkpt><trkpt lat="40.210360" lon="-5.840050"><ele>895.5</ele><time>2014-07-07T06:02:07Z</time></trkpt><trkpt lat="40.210390" lon="-5.840320"><ele>893.4</ele><time>2014-07-07T06:02:24Z</time></trkpt><trkpt lat="40.210410" lon="-5.840470"><ele>891.2</ele><time>2014-07-07T06:02:41Z</time></trkpt><trkpt lat="40.210510" lon="-5.840630"><ele>889.7</ele><time>2014-07-07T06:02:58Z</time></trkpt><trkpt lat="40.210580" lon="-5.840760"><ele>889.4</ele><time>2014-07-07T06:03:15Z</time></trkpt><trkpt lat="40.210620" lon="-5.840830"><ele>889.4</ele><time>2014-07-07T06:03:32Z</time></trkpt><trkpt lat="40.210770" lon="-5.841040"><ele>888.8</ele><time>2014-07-07T06:03:49Z</time></trkpt><trkpt lat="40.210890" lon="-5.841200"><ele>888.5</ele><time>2014-07-07T06:04:06Z</time></trkpt><trkpt lat="40.210960" lon="-5.841280"><ele>888.8</ele><time>2014-07-07T06:04:23Z</time></trkpt><trkpt lat="40.210970" lon="-5.841460"><ele>891.8</ele><time>2014-07-07T06:04:40Z</time></trkpt><trkpt lat="40.210960" lon="-5.841520"><ele>895.2</ele><time>2014-07-07T06:04:57Z</time></trkpt><trkpt lat="40.210910" lon="-5.841550"><ele>897.6</ele><time>2014-07-07T06:05:14Z</time></trkpt><trkpt lat="40.210800" lon="-5.841630"><ele>899.5</ele><time>2014-07-07T06:05:31Z</time></trkpt><trkpt lat="40.210740" lon="-5.841740"><ele>902.8</ele><time>2014-07-07T06:05:48Z</time></trkpt><trkpt lat="40.210810" lon="-5.841810"><ele>904.6</ele><time>2014-07-07T06:06:05Z</time></trkpt><trkpt lat="40.210810" lon="-5.841930"><ele>906.8</ele><time>2014-07-07T06:06:22Z</time></trkpt><trkpt lat="40.210780" lon="-5.842110"><ele>909.2</ele><time>2014-07-07T06:06:39Z</time></trkpt><trkpt lat="40.210820" lon="-5.842120"><ele>911.0</ele><time>2014-07-07T06:06:56Z</time></trkpt><trkpt lat="40.210860" lon="-5.842170"><ele>913.5</ele><time>2014-07-07T06:07:13Z</time></trkpt><trkpt lat="40.210830" lon="-5.842330"><ele>915.3</ele><time>2014-07-07T06:07:30Z</time></trkpt><trkpt lat="40.210860" lon="-5.842370"><ele>916.8</ele><time>2014-07-07T06:07:47Z</time></trkpt><trkpt lat="40.210960" lon="-5.842300"><ele>918.4</ele><time>2014-07-07T06:08:04Z</time></trkpt><trkpt lat="40.210970" lon="-5.842440"><ele>921.1</ele><time>2014-07-07T06:08:21Z</time></trkpt><trkpt lat="40.210980" lon="-5.842650"><ele>922.9</ele><time>2014-07-07T06:08:38Z</time></trkpt><trkpt lat="40.211060" lon="-5.842750"><ele>926.0</ele><time>2014-07-07T06:08:55Z</time></trkpt><trkpt lat="40.211060" lon="-5.842910"><ele>927.2</ele><time>2014-07-07T06:09:12Z</time></trkpt><trkpt lat="40.211080" lon="-5.843120"><ele>930.9</ele><time>2014-07-07T06:09:29Z</time></trkpt><trkpt lat="40.211110" lon="-5.843280"><ele>933.6</ele><time>2014-07-07T06:09:46Z</time></trkpt><trkpt lat="40.211200" lon="-5.843480"><ele>936.3</ele><time>2014-07-07T06:10:03Z</time></trkpt><trkpt lat="40.211230" lon="-5.843650"><ele>938.8</ele><time>2014-07-07T06:10:20Z</time></trkpt><trkpt lat="40.211260" lon="-5.843820"><ele>939.7</ele><time>2014-07-07T06:10:37Z</time></trkpt><trkpt lat="40.211280" lon="-5.844040"><ele>938.8</ele><time>2014-07-07T06:10:54Z</time></trkpt><trkpt lat="40.211360" lon="-5.844150"><ele>941.2</ele><time>2014-07-07T06:11:11Z</time></trkpt><trkpt lat="40.211420" lon="-5.844340"><ele>943.7</ele><time>2014-07-07T06:11:28Z</time></trkpt><trkpt lat="40.211450" lon="-5.844470"><ele>947.0</ele><time>2014-07-07T06:11:45Z</time></trkpt><trkpt lat="40.211410" lon="-5.844630"><ele>947.0</ele><time>2014-07-07T06:12:02Z</time></trkpt><trkpt lat="40.211440" lon="-5.844770"><ele>950.1</ele><time>2014-07-07T06:12:19Z</time></trkpt><trkpt lat="40.211480" lon="-5.844870"><ele>952.8</ele><time>2014-07-07T06:12:36Z</time></trkpt><trkpt lat="40.211510" lon="-5.845060"><ele>955.9</ele><time>2014-07-07T06:12:53Z</time></trkpt><trkpt lat="40.211580" lon="-5.845200"><ele>958.6</ele><time>2014-07-07T06:13:10Z</time></trkpt><trkpt lat="40.211590" lon="-5.845220"><ele>958.6</ele><time>2014-07-07T06:13:27Z</time></trkpt><trkpt lat="40.211680" lon="-5.845380"><ele>960.4</ele><time>2014-07-07T06:13:44Z</time></trkpt><trkpt lat="40.211690" lon="-5.845420"><ele>960.4</ele><time>2014-07-07T06:14:01Z</time></trkpt><trkpt lat="40.211830" lon="-5.845640"><ele>961.0</ele><time>2014-07-07T06:14:18Z</time></trkpt><trkpt lat="40.211930" lon="-5.845740"><ele>961.3</ele><time>2014-07-07T06:14:35Z</time></trkpt><trkpt lat="40.212090" lon="-5.845820"><ele>962.6</ele><time>2014-07-07T06:14:52Z</time></trkpt><trkpt lat="40.212210" lon="-5.845920"><ele>963.5</ele><time>2014-07-07T06:15:09Z</time></trkpt><trkpt lat="40.212230" lon="-5.845990"><ele>962.9</ele><time>2014-07-07T06:15:26Z</time></trkpt><trkpt lat="40.212330" lon="-5.846100"><ele>964.4</ele><time>2014-07-07T06:15:43Z</time></trkpt><trkpt lat="40.212410" lon="-5.846200"><ele>964.7</ele><time>2014-07-07T06:16:00Z</time></trkpt><trkpt lat="40.212460" lon="-5.846230"><ele>965.3</ele><time>2014-07-07T06:16:17Z</time></trkpt><trkpt lat="40.212510" lon="-5.846360"><ele>965.9</ele><time>2014-07-07T06:16:34Z</time></trkpt><trkpt lat="40.212550" lon="-5.846500"><ele>966.8</ele><time>2014-07-07T06:16:51Z</time></trkpt><trkpt lat="40.212630" lon="-5.846590"><ele>969.3</ele><time>2014-07-07T06:17:08Z</time></trkpt><trkpt lat="40.212650" lon="-5.846690"><ele>970.5</ele><time>2014-07-07T06:17:25Z</time></trkpt><trkpt lat="40.212690" lon="-5.846800"><ele>971.7</ele><time>2014-07-07T06:17:42Z</time></trkpt><trkpt lat="40.212720" lon="-5.846900"><ele>972.9</ele><time>2014-07-07T06:17:59Z</time></trkpt><trkpt lat="40.212740" lon="-5.847030"><ele>975.4</ele><time>2014-07-07T06:18:16Z</time></trkpt><trkpt lat="40.212780" lon="-5.847180"><ele>976.3</ele><time>2014-07-07T06:18:33Z</time></trkpt><trkpt lat="40.212800" lon="-5.847340"><ele>977.8</ele><time>2014-07-07T06:18:50Z</time></trkpt><trkpt lat="40.212820" lon="-5.847400"><ele>978.4</ele><time>2014-07-07T06:19:07Z</time></trkpt><trkpt lat="40.212790" lon="-5.847530"><ele>978.7</ele><time>2014-07-07T06:19:24Z</time></trkpt><trkpt lat="40.212890" lon="-5.847630"><ele>981.2</ele><time>2014-07-07T06:19:41Z</time></trkpt><trkpt lat="40.212950" lon="-5.847780"><ele>984.5</ele><time>2014-07-07T06:19:58Z</time></trkpt><trkpt lat="40.213030" lon="-5.847940"><ele>987.6</ele><time>2014-07-07T06:20:15Z</time></trkpt><trkpt lat="40.213050" lon="-5.848030"><ele>988.8</ele><time>2014-07-07T06:20:32Z</time></trkpt><trkpt lat="40.213090" lon="-5.848170"><ele>990.9</ele><time>2014-07-07T06:20:49Z</time></trkpt><trkpt lat="40.213190" lon="-5.848260"><ele>994.3</ele><time>2014-07-07T06:21:06Z</time></trkpt><trkpt lat="40.213230" lon="-5.848400"><ele>995.5</ele><time>2014-07-07T06:21:23Z</time></trkpt><trkpt lat="40.213250" lon="-5.848550"><ele>997.6</ele><time>2014-07-07T06:21:40Z</time></trkpt><trkpt lat="40.213230" lon="-5.848780"><ele>997.6</ele><time>2014-07-07T06:21:57Z</time></trkpt><trkpt lat="40.213230" lon="-5.848890"><ele>998.8</ele><time>2014-07-07T06:22:14Z</time></trkpt><trkpt lat="40.213250" lon="-5.849040"><ele>1001.3</ele><time>2014-07-07T06:22:31Z</time></trkpt><trkpt lat="40.213240" lon="-5.849200"><ele>1002.8</ele><time>2014-07-07T06:22:48Z</time></trkpt><trkpt lat="40.213230" lon="-5.849340"><ele>1005.2</ele><time>2014-07-07T06:23:05Z</time></trkpt><trkpt lat="40.213200" lon="-5.849480"><ele>1006.8</ele><time>2014-07-07T06:23:22Z</time></trkpt><trkpt lat="40.213250" lon="-5.849610"><ele>1009.2</ele><time>2014-07-07T06:23:39Z</time></trkpt><trkpt lat="40.213370" lon="-5.849630"><ele>1010.1</ele><time>2014-07-07T06:23:56Z</time></trkpt><trkpt lat="40.213420" lon="-5.849760"><ele>1012.9</ele><time>2014-07-07T06:24:13Z</time></trkpt><trkpt lat="40.213500" lon="-5.849870"><ele>1014.7</ele><time>2014-07-07T06:24:30Z</time></trkpt><trkpt lat="40.213550" lon="-5.850000"><ele>1017.7</ele><time>2014-07-07T06:24:47Z</time></trkpt><trkpt lat="40.213660" lon="-5.850070"><ele>1019.3</ele><time>2014-07-07T06:25:04Z</time></trkpt><trkpt lat="40.213660" lon="-5.850090"><ele>1020.2</ele><time>2014-07-07T06:25:21Z</time></trkpt><trkpt lat="40.213670" lon="-5.850230"><ele>1021.7</ele><time>2014-07-07T06:25:38Z</time></trkpt><trkpt lat="40.213710" lon="-5.850350"><ele>1022.9</ele><time>2014-07-07T06:25:55Z</time></trkpt><trkpt lat="40.213720" lon="-5.850460"><ele>1025.0</ele><time>2014-07-07T06:26:12Z</time></trkpt><trkpt lat="40.213790" lon="-5.850530"><ele>1027.8</ele><time>2014-07-07T06:26:29Z</time></trkpt><trkpt lat="40.213790" lon="-5.850570"><ele>1028.7</ele><time>2014-07-07T06:26:46Z</time></trkpt><trkpt lat="40.213870" lon="-5.850630"><ele>1030.8</ele><time>2014-07-07T06:27:03Z</time></trkpt><trkpt lat="40.213880" lon="-5.850720"><ele>1034.2</ele><time>2014-07-07T06:27:20Z</time></trkpt><trkpt lat="40.213890" lon="-5.850740"><ele>1034.2</ele><time>2014-07-07T06:27:37Z</time></trkpt><trkpt lat="40.213910" lon="-5.850770"><ele>1035.1</ele><time>2014-07-07T06:27:54Z</time></trkpt><trkpt lat="40.213930" lon="-5.850910"><ele>1038.5</ele><time>2014-07-07T06:28:11Z</time></trkpt><trkpt lat="40.213950" lon="-5.850990"><ele>1040.9</ele><time>2014-07-07T06:28:28Z</time></trkpt><trkpt lat="40.214060" lon="-5.850950"><ele>1043.3</ele><time>2014-07-07T06:28:45Z</time></trkpt><trkpt lat="40.214120" lon="-5.850990"><ele>1045.2</ele><time>2014-07-07T06:29:02Z</time></trkpt><trkpt lat="40.214180" lon="-5.851120"><ele>1047.6</ele><time>2014-07-07T06:29:19Z</time></trkpt><trkpt lat="40.214120" lon="-5.851240"><ele>1050.3</ele><time>2014-07-07T06:29:36Z</time></trkpt><trkpt lat="40.214060" lon="-5.851270"><ele>1053.4</ele><time>2014-07-07T06:29:53Z</time></trkpt><trkpt lat="40.214140" lon="-5.851320"><ele>1056.1</ele><time>2014-07-07T06:30:10Z</time></trkpt><trkpt lat="40.214210" lon="-5.851350"><ele>1057.7</ele><time>2014-07-07T06:30:27Z</time></trkpt><trkpt lat="40.214300" lon="-5.851380"><ele>1059.2</ele><time>2014-07-07T06:30:44Z</time></trkpt><trkpt lat="40.214360" lon="-5.851510"><ele>1061.3</ele><time>2014-07-07T06:31:01Z</time></trkpt><trkpt lat="40.214230" lon="-5.851520"><ele>1063.4</ele><time>2014-07-07T06:31:18Z</time></trkpt><trkpt lat="40.214100" lon="-5.851540"><ele>1064.7</ele><time>2014-07-07T06:31:35Z</time></trkpt><trkpt lat="40.214080" lon="-5.851550"><ele>1066.2</ele><time>2014-07-07T06:31:52Z</time></trkpt><trkpt lat="40.213990" lon="-5.851630"><ele>1068.3</ele><time>2014-07-07T06:32:09Z</time></trkpt><trkpt lat="40.214030" lon="-5.851720"><ele>1071.1</ele><time>2014-07-07T06:32:26Z</time></trkpt><trkpt lat="40.214080" lon="-5.851800"><ele>1073.8</ele><time>2014-07-07T06:32:43Z</time></trkpt><trkpt lat="40.214160" lon="-5.851870"><ele>1075.9</ele><time>2014-07-07T06:33:00Z</time></trkpt><trkpt lat="40.214260" lon="-5.851970"><ele>1078.4</ele><time>2014-07-07T06:33:17Z</time></trkpt><trkpt lat="40.214330" lon="-5.852030"><ele>1079.6</ele><time>2014-07-07T06:33:34Z</time></trkpt><trkpt lat="40.214330" lon="-5.852100"><ele>1082.6</ele><time>2014-07-07T06:33:51Z</time></trkpt><trkpt lat="40.214240" lon="-5.852140"><ele>1086.0</ele><time>2014-07-07T06:34:08Z</time></trkpt><trkpt lat="40.214160" lon="-5.852200"><ele>1087.8</ele><time>2014-07-07T06:34:25Z</time></trkpt><trkpt lat="40.214180" lon="-5.852270"><ele>1091.2</ele><time>2014-07-07T06:34:42Z</time></trkpt><trkpt lat="40.214140" lon="-5.852330"><ele>1093.6</ele><time>2014-07-07T06:34:59Z</time></trkpt><trkpt lat="40.214190" lon="-5.852410"><ele>1096.7</ele><time>2014-07-07T06:35:16Z</time></trkpt><trkpt lat="40.214220" lon="-5.852470"><ele>1098.5</ele><time>2014-07-07T06:35:33Z</time></trkpt><trkpt lat="40.214200" lon="-5.852550"><ele>1101.2</ele><time>2014-07-07T06:35:50Z</time></trkpt><trkpt lat="40.214210" lon="-5.852640"><ele>1104.6</ele><time>2014-07-07T06:36:07Z</time></trkpt><trkpt lat="40.214250" lon="-5.852760"><ele>1107.6</ele><time>2014-07-07T06:36:24Z</time></trkpt><trkpt lat="40.214330" lon="-5.852890"><ele>1110.4</ele><time>2014-07-07T06:36:41Z</time></trkpt><trkpt lat="40.214420" lon="-5.853020"><ele>1113.7</ele><time>2014-07-07T06:36:58Z</time></trkpt><trkpt lat="40.214480" lon="-5.853130"><ele>1115.9</ele><time>2014-07-07T06:37:15Z</time></trkpt><trkpt lat="40.214530" lon="-5.853220"><ele>1119.2</ele><time>2014-07-07T06:37:32Z</time></trkpt><trkpt lat="40.214580" lon="-5.853290"><ele>1121.1</ele><time>2014-07-07T06:37:49Z</time></trkpt><trkpt lat="40.214620" lon="-5.853390"><ele>1123.5</ele><time>2014-07-07T06:38:06Z</time></trkpt><trkpt lat="40.214520" lon="-5.853350"><ele>1126.2</ele><time>2014-07-07T06:38:23Z</time></trkpt><trkpt lat="40.214390" lon="-5.853350"><ele>1129.3</ele><time>2014-07-07T06:38:40Z</time></trkpt><trkpt lat="40.214300" lon="-5.853390"><ele>1132.6</ele><time>2014-07-07T06:38:57Z</time></trkpt><trkpt lat="40.214310" lon="-5.853460"><ele>1135.4</ele><time>2014-07-07T06:39:14Z</time></trkpt><trkpt lat="40.214340" lon="-5.853570"><ele>1138.4</ele><time>2014-07-07T06:39:31Z</time></trkpt><trkpt lat="40.214380" lon="-5.853660"><ele>1140.3</ele><time>2014-07-07T06:39:48Z</time></trkpt><trkpt lat="40.214430" lon="-5.853750"><ele>1143.6</ele><time>2014-07-07T06:40:05Z</time></trkpt><trkpt lat="40.214480" lon="-5.853820"><ele>1146.7</ele><time>2014-07-07T06:40:22Z</time></trkpt><trkpt lat="40.214540" lon="-5.853910"><ele>1149.4</ele><time>2014-07-07T06:40:39Z</time></trkpt><trkpt lat="40.214570" lon="-5.853980"><ele>1151.2</ele><time>2014-07-07T06:40:56Z</time></trkpt><trkpt lat="40.214630" lon="-5.854060"><ele>1154.3</ele><time>2014-07-07T06:41:13Z</time></trkpt><trkpt lat="40.214740" lon="-5.854170"><ele>1157.6</ele><time>2014-07-07T06:41:30Z</time></trkpt><trkpt lat="40.214670" lon="-5.854180"><ele>1159.5</ele><time>2014-07-07T06:41:47Z</time></trkpt><trkpt lat="40.214510" lon="-5.854140"><ele>1160.4</ele><time>2014-07-07T06:42:04Z</time></trkpt><trkpt lat="40.214350" lon="-5.854130"><ele>1162.8</ele><time>2014-07-07T06:42:21Z</time></trkpt><trkpt lat="40.214220" lon="-5.854100"><ele>1164.3</ele><time>2014-07-07T06:42:38Z</time></trkpt><trkpt lat="40.214040" lon="-5.854080"><ele>1166.8</ele><time>2014-07-07T06:42:55Z</time></trkpt><trkpt lat="40.213870" lon="-5.854050"><ele>1168.3</ele><time>2014-07-07T06:43:12Z</time></trkpt><trkpt lat="40.213700" lon="-5.854070"><ele>1170.1</ele><time>2014-07-07T06:43:29Z</time></trkpt><trkpt lat="40.213700" lon="-5.854230"><ele>1171.7</ele><time>2014-07-07T06:43:46Z</time></trkpt><trkpt lat="40.213760" lon="-5.854410"><ele>1173.5</ele><time>2014-07-07T06:44:03Z</time></trkpt><trkpt lat="40.213810" lon="-5.854560"><ele>1175.9</ele><time>2014-07-07T06:44:20Z</time></trkpt><trkpt lat="40.213880" lon="-5.854740"><ele>1178.7</ele><time>2014-07-07T06:44:37Z</time></trkpt><trkpt lat="40.213920" lon="-5.854820"><ele>1180.2</ele><time>2014-07-07T06:44:54Z</time></trkpt><trkpt lat="40.214010" lon="-5.854960"><ele>1183.5</ele><time>2014-07-07T06:45:11Z</time></trkpt><trkpt lat="40.214100" lon="-5.855090"><ele>1186.0</ele><time>2014-07-07T06:45:28Z</time></trkpt><trkpt lat="40.214170" lon="-5.855240"><ele>1188.7</ele><time>2014-07-07T06:45:45Z</time></trkpt><trkpt lat="40.214250" lon="-5.855420"><ele>1191.2</ele><time>2014-07-07T06:46:02Z</time></trkpt><trkpt lat="40.214320" lon="-5.855560"><ele>1194.5</ele><time>2014-07-07T06:46:19Z</time></trkpt><trkpt lat="40.214330" lon="-5.855600"><ele>1194.5</ele><time>2014-07-07T06:46:36Z</time></trkpt><trkpt lat="40.214450" lon="-5.855780"><ele>1197.6</ele><time>2014-07-07T06:46:53Z</time></trkpt><trkpt lat="40.214530" lon="-5.855860"><ele>1200.9</ele><time>2014-07-07T06:47:10Z</time></trkpt><trkpt lat="40.214540" lon="-5.855870"><ele>1200.9</ele><time>2014-07-07T06:47:27Z</time></trkpt><trkpt lat="40.214670" lon="-5.855970"><ele>1202.7</ele><time>2014-07-07T06:47:44Z</time></trkpt><trkpt lat="40.214770" lon="-5.856030"><ele>1206.1</ele><time>2014-07-07T06:48:01Z</time></trkpt><trkpt lat="40.214840" lon="-5.855970"><ele>1209.4</ele><time>2014-07-07T06:48:18Z</time></trkpt><trkpt lat="40.214860" lon="-5.855850"><ele>1212.8</ele><time>2014-07-07T06:48:35Z</time></trkpt><trkpt lat="40.214960" lon="-5.855790"><ele>1214.6</ele><time>2014-07-07T06:48:52Z</time></trkpt><trkpt lat="40.215120" lon="-5.855870"><ele>1217.1</ele><time>2014-07-07T06:49:09Z</time></trkpt><trkpt lat="40.215370" lon="-5.856030"><ele>1220.1</ele><time>2014-07-07T06:49:26Z</time></trkpt><trkpt lat="40.215470" lon="-5.856090"><ele>1221.9</ele><time>2014-07-07T06:49:43Z</time></trkpt><trkpt lat="40.215460" lon="-5.856100"><ele>1221.9</ele><time>2014-07-07T06:50:00Z</time></trkpt><trkpt lat="40.215530" lon="-5.856220"><ele>1222.9</ele><time>2014-07-07T06:50:17Z</time></trkpt><trkpt lat="40.215550" lon="-5.856240"><ele>1222.9</ele><time>2014-07-07T06:50:34Z</time></trkpt><trkpt lat="40.215690" lon="-5.856280"><ele>1225.3</ele><time>2014-07-07T06:50:51Z</time></trkpt><trkpt lat="40.215720" lon="-5.856340"><ele>1225.9</ele><time>2014-07-07T06:51:08Z</time></trkpt><trkpt lat="40.215710" lon="-5.856350"><ele>1226.2</ele><time>2014-07-07T06:51:25Z</time></trkpt><trkpt lat="40.215860" lon="-5.856400"><ele>1228.3</ele><time>2014-07-07T06:51:42Z</time></trkpt><trkpt lat="40.216050" lon="-5.856500"><ele>1231.1</ele><time>2014-07-07T06:51:59Z</time></trkpt><trkpt lat="40.216220" lon="-5.856590"><ele>1235.0</ele><time>2014-07-07T06:52:16Z</time></trkpt><trkpt lat="40.216400" lon="-5.856700"><ele>1238.4</ele><time>2014-07-07T06:52:33Z</time></trkpt><trkpt lat="40.216530" lon="-5.856820"><ele>1241.1</ele><time>2014-07-07T06:52:50Z</time></trkpt><trkpt lat="40.216690" lon="-5.856940"><ele>1244.5</ele><time>2014-07-07T06:53:07Z</time></trkpt><trkpt lat="40.216940" lon="-5.857130"><ele>1246.9</ele><time>2014-07-07T06:53:24Z</time></trkpt><trkpt lat="40.217130" lon="-5.857340"><ele>1250.3</ele><time>2014-07-07T06:53:41Z</time></trkpt><trkpt lat="40.217080" lon="-5.857770"><ele>1246.9</ele><time>2014-07-07T06:53:58Z</time></trkpt><trkpt lat="40.217040" lon="-5.857980"><ele>1247.5</ele><time>2014-07-07T06:54:15Z</time></trkpt><trkpt lat="40.217030" lon="-5.858390"><ele>1246.9</ele><time>2014-07-07T06:54:32Z</time></trkpt><trkpt lat="40.217140" lon="-5.858650"><ele>1250.3</ele><time>2014-07-07T06:54:49Z</time></trkpt><trkpt lat="40.217320" lon="-5.859020"><ele>1252.7</ele><time>2014-07-07T06:55:06Z</time></trkpt><trkpt lat="40.217540" lon="-5.859410"><ele>1255.2</ele><time>2014-07-07T06:55:23Z</time></trkpt><trkpt lat="40.217720" lon="-5.859740"><ele>1257.6</ele><time>2014-07-07T06:55:40Z</time></trkpt><trkpt lat="40.217890" lon="-5.859950"><ele>1261.0</ele><time>2014-07-07T06:55:57Z</time></trkpt><trkpt lat="40.218050" lon="-5.860120"><ele>1263.7</ele><time>2014-07-07T06:56:14Z</time></trkpt><trkpt lat="40.218240" lon="-5.860280"><ele>1266.1</ele><time>2014-07-07T06:56:31Z</time></trkpt><trkpt lat="40.218470" lon="-5.860440"><ele>1269.5</ele><time>2014-07-07T06:56:48Z</time></trkpt><trkpt lat="40.218750" lon="-5.860650"><ele>1271.6</ele><time>2014-07-07T06:57:05Z</time></trkpt><trkpt lat="40.218920" lon="-5.860890"><ele>1271.9</ele><time>2014-07-07T06:57:22Z</time></trkpt><trkpt lat="40.219090" lon="-5.861270"><ele>1273.5</ele><time>2014-07-07T06:57:39Z</time></trkpt><trkpt lat="40.219120" lon="-5.861660"><ele>1275.9</ele><time>2014-07-07T06:57:56Z</time></trkpt><trkpt lat="40.219130" lon="-5.861980"><ele>1278.6</ele><time>2014-07-07T06:58:13Z</time></trkpt><trkpt lat="40.219230" lon="-5.862340"><ele>1281.7</ele><time>2014-07-07T06:58:30Z</time></trkpt><trkpt lat="40.219380" lon="-5.862670"><ele>1284.1</ele><time>2014-07-07T06:58:47Z</time></trkpt><trkpt lat="40.219520" lon="-5.862980"><ele>1286.9</ele><time>2014-07-07T06:59:04Z</time></trkpt><trkpt lat="40.219650" lon="-5.863300"><ele>1289.6</ele><time>2014-07-07T06:59:21Z</time></trkpt><trkpt lat="40.219480" lon="-5.863560"><ele>1290.8</ele><time>2014-07-07T06:59:38Z</time></trkpt><trkpt lat="40.219450" lon="-5.863710"><ele>1292.7</ele><time>2014-07-07T06:59:55Z</time></trkpt><trkpt lat="40.219480" lon="-5.863790"><ele>1293.3</ele><time>2014-07-07T07:00:12Z</time></trkpt><trkpt lat="40.219512" lon="-5.863949"><ele>1295.1</ele><time>2014-07-07T07:00:29Z</time></trkpt><trkpt lat="40.219567" lon="-5.864198"><ele>1297.5</ele><time>2014-07-07T07:00:46Z</time></trkpt><trkpt lat="40.219622" lon="-5.864430"><ele>1300.9</ele><time>2014-07-07T07:01:03Z</time></trkpt><trkpt lat="40.219731" lon="-5.864655"><ele>1303.6</ele><time>2014-07-07T07:01:20Z</time></trkpt><trkpt lat="40.219762" lon="-5.864788"><ele>1307.0</ele><time>2014-07-07T07:01:37Z</time></trkpt><trkpt lat="40.219766" lon="-5.864903"><ele>1307.9</ele><time>2014-07-07T07:01:54Z</time></trkpt><trkpt lat="40.219724" lon="-5.864945"><ele>1309.1</ele><time>2014-07-07T07:02:11Z</time></trkpt><trkpt lat="40.219623" lon="-5.864923"><ele>1310.9</ele><time>2014-07-07T07:02:28Z</time></trkpt><trkpt lat="40.219431" lon="-5.864774"><ele>1313.4</ele><time>2014-07-07T07:02:45Z</time></trkpt><trkpt lat="40.219258" lon="-5.864661"><ele>1316.7</ele><time>2014-07-07T07:03:02Z</time></trkpt><trkpt lat="40.218607" lon="-5.864211"><ele>1318.6</ele><time>2014-07-07T07:03:19Z</time></trkpt><trkpt lat="40.218189" lon="-5.863920"><ele>1321.0</ele><time>2014-07-07T07:03:36Z</time></trkpt><trkpt lat="40.217738" lon="-5.863592"><ele>1323.7</ele><time>2014-07-07T07:03:53Z</time></trkpt><trkpt lat="40.217452" lon="-5.863386"><ele>1325.3</ele><time>2014-07-07T07:04:10Z</time></trkpt><trkpt lat="40.217270" lon="-5.863388"><ele>1328.3</ele><time>2014-07-07T07:04:27Z</time></trkpt><trkpt lat="40.217126" lon="-5.863478"><ele>1331.1</ele><time>2014-07-07T07:04:44Z</time></trkpt><trkpt lat="40.217074" lon="-5.863653"><ele>1333.5</ele><time>2014-07-07T07:05:01Z</time></trkpt><trkpt lat="40.217151" lon="-5.863832"><ele>1333.5</ele><time>2014-07-07T07:05:18Z</time></trkpt><trkpt lat="40.217199" lon="-5.864063"><ele>1335.0</ele><time>2014-07-07T07:05:35Z</time></trkpt><trkpt lat="40.217205" lon="-5.864381"><ele>1337.5</ele><time>2014-07-07T07:05:52Z</time></trkpt><trkpt lat="40.217240" lon="-5.864611"><ele>1338.4</ele><time>2014-07-07T07:06:09Z</time></trkpt><trkpt lat="40.217360" lon="-5.864934"><ele>1338.4</ele><time>2014-07-07T07:06:26Z</time></trkpt><trkpt lat="40.217482" lon="-5.865186"><ele>1338.7</ele><time>2014-07-07T07:06:43Z</time></trkpt><trkpt lat="40.217793" lon="-5.865463"><ele>1341.1</ele><time>2014-07-07T07:07:00Z</time></trkpt><trkpt lat="40.218322" lon="-5.865908"><ele>1344.2</ele><time>2014-07-07T07:07:17Z</time></trkpt><trkpt lat="40.218646" lon="-5.866213"><ele>1345.4</ele><time>2014-07-07T07:07:34Z</time></trkpt><trkpt lat="40.218875" lon="-5.866487"><ele>1348.4</ele><time>2014-07-07T07:07:51Z</time></trkpt><trkpt lat="40.218904" lon="-5.866700"><ele>1350.0</ele><time>2014-07-07T07:08:08Z</time></trkpt><trkpt lat="40.219172" lon="-5.867037"><ele>1352.4</ele><time>2014-07-07T07:08:25Z</time></trkpt><trkpt lat="40.219500" lon="-5.867465"><ele>1355.8</ele><time>2014-07-07T07:08:42Z</time></trkpt><trkpt lat="40.219625" lon="-5.867602"><ele>1357.0</ele><time>2014-07-07T07:08:59Z</time></trkpt><trkpt lat="40.219878" lon="-5.867745"><ele>1358.5</ele><time>2014-07-07T07:09:16Z</time></trkpt><trkpt lat="40.220063" lon="-5.867903"><ele>1361.2</ele><time>2014-07-07T07:09:33Z</time></trkpt><trkpt lat="40.220209" lon="-5.868015"><ele>1364.3</ele><time>2014-07-07T07:09:50Z</time></trkpt><trkpt lat="40.220308" lon="-5.868098"><ele>1367.6</ele><time>2014-07-07T07:10:07Z</time></trkpt><trkpt lat="40.220360" lon="-5.868171"><ele>1371.0</ele><time>2014-07-07T07:10:24Z</time></trkpt><trkpt lat="40.220400" lon="-5.868199"><ele>1372.5</ele><time>2014-07-07T07:10:41Z</time></trkpt><trkpt lat="40.220453" lon="-5.868254"><ele>1374.3</ele><time>2014-07-07T07:10:58Z</time></trkpt><trkpt lat="40.220518" lon="-5.868354"><ele>1375.0</ele><time>2014-07-07T07:11:15Z</time></trkpt><trkpt lat="40.220600" lon="-5.868530"><ele>1378.3</ele><time>2014-07-07T07:11:32Z</time></trkpt><trkpt lat="40.220690" lon="-5.868840"><ele>1381.0</ele><time>2014-07-07T07:11:49Z</time></trkpt><trkpt lat="40.220770" lon="-5.869080"><ele>1384.1</ele><time>2014-07-07T07:12:06Z</time></trkpt><trkpt lat="40.220880" lon="-5.869340"><ele>1387.4</ele><time>2014-07-07T07:12:23Z</time></trkpt><trkpt lat="40.220960" lon="-5.869590"><ele>1390.2</ele><time>2014-07-07T07:12:40Z</time></trkpt><trkpt lat="40.221002" lon="-5.869811"><ele>1393.2</ele><time>2014-07-07T07:12:57Z</time></trkpt><trkpt lat="40.221041" lon="-5.869866"><ele>1393.5</ele><time>2014-07-07T07:13:14Z</time></trkpt><trkpt lat="40.221071" lon="-5.870008"><ele>1396.9</ele><time>2014-07-07T07:13:31Z</time></trkpt><trkpt lat="40.221089" lon="-5.870132"><ele>1398.4</ele><time>2014-07-07T07:13:48Z</time></trkpt><trkpt lat="40.221094" lon="-5.870194"><ele>1399.3</ele><time>2014-07-07T07:14:05Z</time></trkpt><trkpt lat="40.221106" lon="-5.870247"><ele>1397.8</ele><time>2014-07-07T07:14:22Z</time></trkpt><trkpt lat="40.221080" lon="-5.870270"><ele>1397.5</ele><time>2014-07-07T07:14:39Z</time></trkpt><trkpt lat="40.220830" lon="-5.870300"><ele>1400.9</ele><time>2014-07-07T07:14:56Z</time></trkpt><trkpt lat="40.220750" lon="-5.870340"><ele>1401.8</ele><time>2014-07-07T07:15:13Z</time></trkpt><trkpt lat="40.220760" lon="-5.870330"><ele>1401.2</ele><time>2014-07-07T07:15:30Z</time></trkpt><trkpt lat="40.220751" lon="-5.870382"><ele>1398.7</ele><time>2014-07-07T07:15:47Z</time></trkpt><trkpt lat="40.220690" lon="-5.870420"><ele>1402.7</ele><time>2014-07-07T07:16:04Z</time></trkpt><trkpt lat="40.220590" lon="-5.870610"><ele>1403.6</ele><time>2014-07-07T07:16:21Z</time></trkpt><trkpt lat="40.220460" lon="-5.870870"><ele>1406.7</ele><time>2014-07-07T07:16:38Z</time></trkpt><trkpt lat="40.220343" lon="-5.871043"><ele>1407.6</ele><time>2014-07-07T07:16:55Z</time></trkpt><trkpt lat="40.219893" lon="-5.871227"><ele>1410.0</ele><time>2014-07-07T07:17:12Z</time></trkpt><trkpt lat="40.219488" lon="-5.871457"><ele>1413.4</ele><time>2014-07-07T07:17:29Z</time></trkpt><trkpt lat="40.219093" lon="-5.871607"><ele>1416.7</ele><time>2014-07-07T07:17:46Z</time></trkpt><trkpt lat="40.219103" lon="-5.871749"><ele>1418.5</ele><time>2014-07-07T07:18:03Z</time></trkpt><trkpt lat="40.219429" lon="-5.871675"><ele>1421.9</ele><time>2014-07-07T07:18:20Z</time></trkpt><trkpt lat="40.220670" lon="-5.871520"><ele>1423.4</ele><time>2014-07-07T07:18:37Z</time></trkpt><trkpt lat="40.220890" lon="-5.871460"><ele>1426.2</ele><time>2014-07-07T07:18:54Z</time></trkpt><trkpt lat="40.221140" lon="-5.871450"><ele>1428.3</ele><time>2014-07-07T07:19:11Z</time></trkpt><trkpt lat="40.221390" lon="-5.871520"><ele>1430.1</ele><time>2014-07-07T07:19:28Z</time></trkpt><trkpt lat="40.221590" lon="-5.871680"><ele>1431.0</ele><time>2014-07-07T07:19:45Z</time></trkpt><trkpt lat="40.221780" lon="-5.871710"><ele>1430.7</ele><time>2014-07-07T07:20:02Z</time></trkpt><trkpt lat="40.221790" lon="-5.871710"><ele>1430.7</ele><time>2014-07-07T07:20:19Z</time></trkpt><trkpt lat="40.221770" lon="-5.871690"><ele>1430.1</ele><time>2014-07-07T07:20:36Z</time></trkpt><trkpt lat="40.221790" lon="-5.871710"><ele>1429.2</ele><time>2014-07-07T07:20:53Z</time></trkpt><trkpt lat="40.221790" lon="-5.871740"><ele>1429.5</ele><time>2014-07-07T07:21:10Z</time></trkpt><trkpt lat="40.221790" lon="-5.871730"><ele>1430.7</ele><time>2014-07-07T07:21:27Z</time></trkpt><trkpt lat="40.221790" lon="-5.871700"><ele>1430.1</ele><time>2014-07-07T07:21:44Z</time></trkpt><trkpt lat="40.221780" lon="-5.871710"><ele>1430.1</ele><time>2014-07-07T07:22:01Z</time></trkpt><trkpt lat="40.221780" lon="-5.871700"><ele>1430.1</ele><time>2014-07-07T07:22:18Z</time></trkpt><trkpt lat="40.221780" lon="-5.871700"><ele>1429.5</ele><time>2014-07-07T07:22:35Z</time></trkpt><trkpt lat="40.221790" lon="-5.871710"><ele>1432.9</ele><time>2014-07-07T07:22:52Z</time></trkpt><trkpt lat="40.221790" lon="-5.871700"><ele>1431.6</ele><time>2014-07-07T07:23:09Z</time></trkpt><trkpt lat="40.221780" lon="-5.871720"><ele>1426.8</ele><time>2014-07-07T07:23:26Z</time></trkpt><trkpt lat="40.221780" lon="-5.871720"><ele>1432.6</ele><time>2014-07-07T07:23:43Z</time></trkpt><trkpt lat="40.221780" lon="-5.871710"><ele>1431.0</ele><time>2014-07-07T07:24:00Z</time></trkpt><trkpt lat="40.221780" lon="-5.871740"><ele>1431.0</ele><time>2014-07-07T07:24:17Z</time></trkpt><trkpt lat="40.221780" lon="-5.871820"><ele>1432.0</ele><time>2014-07-07T07:24:34Z</time></trkpt><trkpt lat="40.221800" lon="-5.871870"><ele>1431.0</ele><time>2014-07-07T07:24:51Z</time></trkpt><trkpt lat="40.221870" lon="-5.872110"><ele>1429.2</ele><time>2014-07-07T07:25:08Z</time></trkpt><trkpt lat="40.221900" lon="-5.872130"><ele>1428.6</ele><time>2014-07-07T07:25:25Z</time></trkpt><trkpt lat="40.221920" lon="-5.872140"><ele>1428.6</ele><time>2014-07-07T07:25:42Z</time></trkpt><trkpt lat="40.222010" lon="-5.872200"><ele>1426.2</ele><time>2014-07-07T07:25:59Z</time></trkpt><trkpt lat="40.222180" lon="-5.872370"><ele>1423.7</ele><time>2014-07-07T07:26:16Z</time></trkpt><trkpt lat="40.222320" lon="-5.872490"><ele>1421.0</ele><time>2014-07-07T07:26:33Z</time></trkpt><trkpt lat="40.222380" lon="-5.872520"><ele>1419.5</ele><time>2014-07-07T07:26:50Z</time></trkpt><trkpt lat="40.222570" lon="-5.872690"><ele>1417.6</ele><time>2014-07-07T07:27:07Z</time></trkpt><trkpt lat="40.222760" lon="-5.872860"><ele>1414.9</ele><time>2014-07-07T07:27:24Z</time></trkpt><trkpt lat="40.222800" lon="-5.872890"><ele>1414.3</ele><time>2014-07-07T07:27:41Z</time></trkpt><trkpt lat="40.223000" lon="-5.873060"><ele>1412.4</ele><time>2014-07-07T07:27:58Z</time></trkpt><trkpt lat="40.223210" lon="-5.873200"><ele>1409.4</ele><time>2014-07-07T07:28:15Z</time></trkpt><trkpt lat="40.223240" lon="-5.873240"><ele>1409.4</ele><time>2014-07-07T07:28:32Z</time></trkpt><trkpt lat="40.223050" lon="-5.873330"><ele>1406.0</ele><time>2014-07-07T07:28:49Z</time></trkpt><trkpt lat="40.222800" lon="-5.873270"><ele>1405.7</ele><time>2014-07-07T07:29:06Z</time></trkpt><trkpt lat="40.222500" lon="-5.873240"><ele>1404.5</ele><time>2014-07-07T07:29:23Z</time></trkpt><trkpt lat="40.222240" lon="-5.873300"><ele>1404.5</ele><time>2014-07-07T07:29:40Z</time></trkpt><trkpt lat="40.222180" lon="-5.873440"><ele>1404.2</ele><time>2014-07-07T07:29:57Z</time></trkpt><trkpt lat="40.222080" lon="-5.873660"><ele>1404.2</ele><time>2014-07-07T07:30:14Z</time></trkpt><trkpt lat="40.221950" lon="-5.874030"><ele>1401.2</ele><time>2014-07-07T07:30:31Z</time></trkpt><trkpt lat="40.221850" lon="-5.874380"><ele>1400.3</ele><time>2014-07-07T07:30:48Z</time></trkpt><trkpt lat="40.221780" lon="-5.874760"><ele>1398.4</ele><time>2014-07-07T07:31:05Z</time></trkpt><trkpt lat="40.221720" lon="-5.875120"><ele>1396.9</ele><time>2014-07-07T07:31:22Z</time></trkpt><trkpt lat="40.221730" lon="-5.875150"><ele>1396.6</ele><time>2014-07-07T07:31:39Z</time></trkpt><trkpt lat="40.221810" lon="-5.875360"><ele>1393.5</ele><time>2014-07-07T07:31:56Z</time></trkpt><trkpt lat="40.221900" lon="-5.875510"><ele>1390.8</ele><time>2014-07-07T07:32:13Z</time></trkpt><trkpt lat="40.221980" lon="-5.875710"><ele>1387.4</ele><time>2014-07-07T07:32:30Z</time></trkpt><trkpt lat="40.222040" lon="-5.875870"><ele>1384.4</ele><time>2014-07-07T07:32:47Z</time></trkpt><trkpt lat="40.222100" lon="-5.876090"><ele>1381.0</ele><time>2014-07-07T07:33:04Z</time></trkpt><trkpt lat="40.222130" lon="-5.876340"><ele>1377.4</ele><time>2014-07-07T07:33:21Z</time></trkpt><trkpt lat="40.222160" lon="-5.876580"><ele>1374.3</ele><time>2014-07-07T07:33:38Z</time></trkpt><trkpt lat="40.222190" lon="-5.876790"><ele>1371.0</ele><time>2014-07-07T07:33:55Z</time></trkpt><trkpt lat="40.222220" lon="-5.877020"><ele>1368.2</ele><time>2014-07-07T07:34:12Z</time></trkpt><trkpt lat="40.222210" lon="-5.877170"><ele>1365.8</ele><time>2014-07-07T07:34:29Z</time></trkpt><trkpt lat="40.222240" lon="-5.877220"><ele>1364.9</ele><time>2014-07-07T07:34:46Z</time></trkpt><trkpt lat="40.222340" lon="-5.877090"><ele>1361.2</ele><time>2014-07-07T07:35:03Z</time></trkpt><trkpt lat="40.222420" lon="-5.876940"><ele>1357.9</ele><time>2014-07-07T07:35:20Z</time></trkpt><trkpt lat="40.222480" lon="-5.876810"><ele>1356.1</ele><time>2014-07-07T07:35:37Z</time></trkpt><trkpt lat="40.222510" lon="-5.876720"><ele>1355.1</ele><time>2014-07-07T07:35:54Z</time></trkpt><trkpt lat="40.222590" lon="-5.876510"><ele>1350.9</ele><time>2014-07-07T07:36:11Z</time></trkpt><trkpt lat="40.222720" lon="-5.876240"><ele>1346.9</ele><time>2014-07-07T07:36:28Z</time></trkpt><trkpt lat="40.222730" lon="-5.876230"><ele>1346.6</ele><time>2014-07-07T07:36:45Z</time></trkpt><trkpt lat="40.222750" lon="-5.876170"><ele>1346.0</ele><time>2014-07-07T07:37:02Z</time></trkpt><trkpt lat="40.222780" lon="-5.876110"><ele>1345.1</ele><time>2014-07-07T07:37:19Z</time></trkpt><trkpt lat="40.222810" lon="-5.876140"><ele>1343.6</ele><time>2014-07-07T07:37:36Z</time></trkpt><trkpt lat="40.222810" lon="-5.876220"><ele>1341.1</ele><time>2014-07-07T07:37:53Z</time></trkpt><trkpt lat="40.222830" lon="-5.876450"><ele>1338.4</ele><time>2014-07-07T07:38:10Z</time></trkpt><trkpt lat="40.222830" lon="-5.876490"><ele>1337.5</ele><time>2014-07-07T07:38:27Z</time></trkpt><trkpt lat="40.222860" lon="-5.876750"><ele>1334.4</ele><time>2014-07-07T07:38:44Z</time></trkpt><trkpt lat="40.222890" lon="-5.876950"><ele>1331.1</ele><time>2014-07-07T07:39:01Z</time></trkpt><trkpt lat="40.222950" lon="-5.877170"><ele>1327.7</ele><time>2014-07-07T07:39:18Z</time></trkpt><trkpt lat="40.223000" lon="-5.877390"><ele>1324.4</ele><time>2014-07-07T07:39:35Z</time></trkpt><trkpt lat="40.223010" lon="-5.877420"><ele>1323.4</ele><time>2014-07-07T07:39:52Z</time></trkpt><trkpt lat="40.223050" lon="-5.877600"><ele>1320.4</ele><time>2014-07-07T07:40:09Z</time></trkpt><trkpt lat="40.223080" lon="-5.877760"><ele>1316.7</ele><time>2014-07-07T07:40:26Z</time></trkpt><trkpt lat="40.223100" lon="-5.877850"><ele>1315.8</ele><time>2014-07-07T07:40:43Z</time></trkpt><trkpt lat="40.223100" lon="-5.877890"><ele>1314.9</ele><time>2014-07-07T07:41:00Z</time></trkpt><trkpt lat="40.223140" lon="-5.878060"><ele>1311.9</ele><time>2014-07-07T07:41:17Z</time></trkpt><trkpt lat="40.223150" lon="-5.878130"><ele>1311.2</ele><time>2014-07-07T07:41:34Z</time></trkpt><trkpt lat="40.223140" lon="-5.878240"><ele>1309.4</ele><time>2014-07-07T07:41:51Z</time></trkpt><trkpt lat="40.223040" lon="-5.878400"><ele>1306.1</ele><time>2014-07-07T07:42:08Z</time></trkpt><trkpt lat="40.222960" lon="-5.878490"><ele>1304.2</ele><time>2014-07-07T07:42:25Z</time></trkpt><trkpt lat="40.222940" lon="-5.878510"><ele>1304.2</ele><time>2014-07-07T07:42:42Z</time></trkpt><trkpt lat="40.222770" lon="-5.878610"><ele>1300.3</ele><time>2014-07-07T07:42:59Z</time></trkpt><trkpt lat="40.222580" lon="-5.878690"><ele>1296.9</ele><time>2014-07-07T07:43:16Z</time></trkpt><trkpt lat="40.222400" lon="-5.878740"><ele>1293.6</ele><time>2014-07-07T07:43:33Z</time></trkpt><trkpt lat="40.222300" lon="-5.878800"><ele>1290.8</ele><time>2014-07-07T07:43:50Z</time></trkpt><trkpt lat="40.222250" lon="-5.878820"><ele>1289.6</ele><time>2014-07-07T07:44:07Z</time></trkpt><trkpt lat="40.222220" lon="-5.878800"><ele>1289.6</ele><time>2014-07-07T07:44:24Z</time></trkpt><trkpt lat="40.222030" lon="-5.878810"><ele>1286.9</ele><time>2014-07-07T07:44:41Z</time></trkpt><trkpt lat="40.221900" lon="-5.878810"><ele>1283.5</ele><time>2014-07-07T07:44:58Z</time></trkpt><trkpt lat="40.221730" lon="-5.878850"><ele>1280.8</ele><time>2014-07-07T07:45:15Z</time></trkpt><trkpt lat="40.221570" lon="-5.878920"><ele>1277.7</ele><time>2014-07-07T07:45:32Z</time></trkpt><trkpt lat="40.221480" lon="-5.878950"><ele>1275.9</ele><time>2014-07-07T07:45:49Z</time></trkpt><trkpt lat="40.221440" lon="-5.878980"><ele>1275.0</ele><time>2014-07-07T07:46:06Z</time></trkpt><trkpt lat="40.221270" lon="-5.879030"><ele>1271.9</ele><time>2014-07-07T07:46:23Z</time></trkpt><trkpt lat="40.221230" lon="-5.879070"><ele>1271.0</ele><time>2014-07-07T07:46:40Z</time></trkpt><trkpt lat="40.221170" lon="-5.879120"><ele>1270.1</ele><time>2014-07-07T07:46:57Z</time></trkpt><trkpt lat="40.221010" lon="-5.879290"><ele>1266.1</ele><time>2014-07-07T07:47:14Z</time></trkpt><trkpt lat="40.220940" lon="-5.879380"><ele>1264.6</ele><time>2014-07-07T07:47:31Z</time></trkpt><trkpt lat="40.220880" lon="-5.879460"><ele>1262.8</ele><time>2014-07-07T07:47:48Z</time></trkpt><trkpt lat="40.220850" lon="-5.879480"><ele>1262.8</ele><time>2014-07-07T07:48:05Z</time></trkpt><trkpt lat="40.220810" lon="-5.879520"><ele>1261.9</ele><time>2014-07-07T07:48:22Z</time></trkpt><trkpt lat="40.220680" lon="-5.879670"><ele>1257.9</ele><time>2014-07-07T07:48:39Z</time></trkpt><trkpt lat="40.220670" lon="-5.879680"><ele>1257.6</ele><time>2014-07-07T07:48:56Z</time></trkpt><trkpt lat="40.220640" lon="-5.879700"><ele>1257.9</ele><time>2014-07-07T07:49:13Z</time></trkpt><trkpt lat="40.220610" lon="-5.879750"><ele>1257.0</ele><time>2014-07-07T07:49:30Z</time></trkpt><trkpt lat="40.220560" lon="-5.879860"><ele>1255.8</ele><time>2014-07-07T07:49:47Z</time></trkpt><trkpt lat="40.220560" lon="-5.879900"><ele>1255.2</ele><time>2014-07-07T07:50:04Z</time></trkpt><trkpt lat="40.220560" lon="-5.880000"><ele>1254.6</ele><time>2014-07-07T07:50:21Z</time></trkpt><trkpt lat="40.220590" lon="-5.880040"><ele>1254.3</ele><time>2014-07-07T07:50:38Z</time></trkpt><trkpt lat="40.220630" lon="-5.880130"><ele>1251.8</ele><time>2014-07-07T07:50:55Z</time></trkpt><trkpt lat="40.220640" lon="-5.880140"><ele>1251.8</ele><time>2014-07-07T07:51:12Z</time></trkpt><trkpt lat="40.220770" lon="-5.880220"><ele>1250.0</ele><time>2014-07-07T07:51:29Z</time></trkpt><trkpt lat="40.220910" lon="-5.880260"><ele>1246.6</ele><time>2014-07-07T07:51:46Z</time></trkpt><trkpt lat="40.221000" lon="-5.880270"><ele>1243.3</ele><time>2014-07-07T07:52:03Z</time></trkpt><trkpt lat="40.221170" lon="-5.880290"><ele>1240.2</ele><time>2014-07-07T07:52:20Z</time></trkpt><trkpt lat="40.221240" lon="-5.880310"><ele>1239.3</ele><time>2014-07-07T07:52:37Z</time></trkpt><trkpt lat="40.221260" lon="-5.880290"><ele>1237.8</ele><time>2014-07-07T07:52:54Z</time></trkpt><trkpt lat="40.221360" lon="-5.880300"><ele>1235.4</ele><time>2014-07-07T07:53:11Z</time></trkpt><trkpt lat="40.221430" lon="-5.880310"><ele>1231.7</ele><time>2014-07-07T07:53:28Z</time></trkpt><trkpt lat="40.221520" lon="-5.880290"><ele>1228.6</ele><time>2014-07-07T07:53:45Z</time></trkpt><trkpt lat="40.221570" lon="-5.880300"><ele>1226.8</ele><time>2014-07-07T07:54:02Z</time></trkpt><trkpt lat="40.221660" lon="-5.880310"><ele>1225.3</ele><time>2014-07-07T07:54:19Z</time></trkpt><trkpt lat="40.221690" lon="-5.880300"><ele>1224.4</ele><time>2014-07-07T07:54:36Z</time></trkpt><trkpt lat="40.221840" lon="-5.880330"><ele>1220.4</ele><time>2014-07-07T07:54:53Z</time></trkpt><trkpt lat="40.221960" lon="-5.880350"><ele>1217.7</ele><time>2014-07-07T07:55:10Z</time></trkpt><trkpt lat="40.222090" lon="-5.880390"><ele>1214.3</ele><time>2014-07-07T07:55:27Z</time></trkpt><trkpt lat="40.222180" lon="-5.880450"><ele>1211.3</ele><time>2014-07-07T07:55:44Z</time></trkpt><trkpt lat="40.222330" lon="-5.880580"><ele>1207.6</ele><time>2014-07-07T07:56:01Z</time></trkpt><trkpt lat="40.222420" lon="-5.880650"><ele>1205.2</ele><time>2014-07-07T07:56:18Z</time></trkpt><trkpt lat="40.222480" lon="-5.880670"><ele>1203.4</ele><time>2014-07-07T07:56:35Z</time></trkpt><trkpt lat="40.222560" lon="-5.880750"><ele>1200.3</ele><time>2014-07-07T07:56:52Z</time></trkpt><trkpt lat="40.222590" lon="-5.880840"><ele>1198.5</ele><time>2014-07-07T07:57:09Z</time></trkpt><trkpt lat="40.222690" lon="-5.880870"><ele>1197.6</ele><time>2014-07-07T07:57:26Z</time></trkpt><trkpt lat="40.222780" lon="-5.880900"><ele>1196.0</ele><time>2014-07-07T07:57:43Z</time></trkpt><trkpt lat="40.222910" lon="-5.880900"><ele>1192.7</ele><time>2014-07-07T07:58:00Z</time></trkpt><trkpt lat="40.223030" lon="-5.880950"><ele>1189.6</ele><time>2014-07-07T07:58:17Z</time></trkpt><trkpt lat="40.223140" lon="-5.881040"><ele>1187.5</ele><time>2014-07-07T07:58:34Z</time></trkpt><trkpt lat="40.223300" lon="-5.881150"><ele>1184.1</ele><time>2014-07-07T07:58:51Z</time></trkpt><trkpt lat="40.223450" lon="-5.881250"><ele>1180.8</ele><time>2014-07-07T07:59:08Z</time></trkpt><trkpt lat="40.223630" lon="-5.881370"><ele>1177.7</ele><time>2014-07-07T07:59:25Z</time></trkpt><trkpt lat="40.223830" lon="-5.881540"><ele>1173.8</ele><time>2014-07-07T07:59:42Z</time></trkpt><trkpt lat="40.224010" lon="-5.881700"><ele>1171.0</ele><time>2014-07-07T07:59:59Z</time></trkpt><trkpt lat="40.224070" lon="-5.881750"><ele>1170.1</ele><time>2014-07-07T08:00:16Z</time></trkpt><trkpt lat="40.224230" lon="-5.881980"><ele>1166.2</ele><time>2014-07-07T08:00:33Z</time></trkpt><trkpt lat="40.224300" lon="-5.882050"><ele>1164.6</ele><time>2014-07-07T08:00:50Z</time></trkpt><trkpt lat="40.224440" lon="-5.882230"><ele>1161.0</ele><time>2014-07-07T08:01:07Z</time></trkpt><trkpt lat="40.224590" lon="-5.882430"><ele>1157.9</ele><time>2014-07-07T08:01:24Z</time></trkpt><trkpt lat="40.224710" lon="-5.882660"><ele>1155.2</ele><time>2014-07-07T08:01:41Z</time></trkpt><trkpt lat="40.224740" lon="-5.882730"><ele>1154.3</ele><time>2014-07-07T08:01:58Z</time></trkpt><trkpt lat="40.224850" lon="-5.883020"><ele>1150.9</ele><time>2014-07-07T08:02:15Z</time></trkpt><trkpt lat="40.224940" lon="-5.883220"><ele>1148.8</ele><time>2014-07-07T08:02:32Z</time></trkpt><trkpt lat="40.225080" lon="-5.883400"><ele>1147.6</ele><time>2014-07-07T08:02:49Z</time></trkpt><trkpt lat="40.225220" lon="-5.883600"><ele>1144.2</ele><time>2014-07-07T08:03:06Z</time></trkpt><trkpt lat="40.225280" lon="-5.883690"><ele>1142.7</ele><time>2014-07-07T08:03:23Z</time></trkpt><trkpt lat="40.225450" lon="-5.883880"><ele>1139.3</ele><time>2014-07-07T08:03:40Z</time></trkpt><trkpt lat="40.225720" lon="-5.884040"><ele>1136.9</ele><time>2014-07-07T08:03:57Z</time></trkpt><trkpt lat="40.225870" lon="-5.884170"><ele>1133.6</ele><time>2014-07-07T08:04:14Z</time></trkpt><trkpt lat="40.226030" lon="-5.884320"><ele>1130.8</ele><time>2014-07-07T08:04:31Z</time></trkpt><trkpt lat="40.226270" lon="-5.884440"><ele>1128.4</ele><time>2014-07-07T08:04:48Z</time></trkpt><trkpt lat="40.226520" lon="-5.884650"><ele>1125.9</ele><time>2014-07-07T08:05:05Z</time></trkpt><trkpt lat="40.226620" lon="-5.884740"><ele>1124.4</ele><time>2014-07-07T08:05:22Z</time></trkpt><trkpt lat="40.226670" lon="-5.884780"><ele>1123.5</ele><time>2014-07-07T08:05:39Z</time></trkpt><trkpt lat="40.226810" lon="-5.884900"><ele>1120.1</ele><time>2014-07-07T08:05:56Z</time></trkpt><trkpt lat="40.226950" lon="-5.885050"><ele>1116.8</ele><time>2014-07-07T08:06:13Z</time></trkpt><trkpt lat="40.227120" lon="-5.885290"><ele>1113.4</ele><time>2014-07-07T08:06:30Z</time></trkpt><trkpt lat="40.227190" lon="-5.885410"><ele>1110.1</ele><time>2014-07-07T08:06:47Z</time></trkpt><trkpt lat="40.227290" lon="-5.885650"><ele>1107.0</ele><time>2014-07-07T08:07:04Z</time></trkpt><trkpt lat="40.227440" lon="-5.885830"><ele>1103.7</ele><time>2014-07-07T08:07:21Z</time></trkpt><trkpt lat="40.227470" lon="-5.885870"><ele>1102.8</ele><time>2014-07-07T08:07:38Z</time></trkpt><trkpt lat="40.227580" lon="-5.886060"><ele>1099.4</ele><time>2014-07-07T08:07:55Z</time></trkpt><trkpt lat="40.227660" lon="-5.886220"><ele>1096.7</ele><time>2014-07-07T08:08:12Z</time></trkpt><trkpt lat="40.227770" lon="-5.886430"><ele>1093.3</ele><time>2014-07-07T08:08:29Z</time></trkpt><trkpt lat="40.227920" lon="-5.886610"><ele>1089.7</ele><time>2014-07-07T08:08:46Z</time></trkpt><trkpt lat="40.227980" lon="-5.886690"><ele>1087.8</ele><time>2014-07-07T08:09:03Z</time></trkpt><trkpt lat="40.228040" lon="-5.886770"><ele>1086.3</ele><time>2014-07-07T08:09:20Z</time></trkpt><trkpt lat="40.228180" lon="-5.886980"><ele>1083.0</ele><time>2014-07-07T08:09:37Z</time></trkpt><trkpt lat="40.228280" lon="-5.887140"><ele>1080.2</ele><time>2014-07-07T08:09:54Z</time></trkpt><trkpt lat="40.228290" lon="-5.887150"><ele>1079.6</ele><time>2014-07-07T08:10:11Z</time></trkpt><trkpt lat="40.228370" lon="-5.887270"><ele>1076.2</ele><time>2014-07-07T08:10:28Z</time></trkpt><trkpt lat="40.228460" lon="-5.887460"><ele>1072.9</ele><time>2014-07-07T08:10:45Z</time></trkpt><trkpt lat="40.228570" lon="-5.887620"><ele>1069.5</ele><time>2014-07-07T08:11:02Z</time></trkpt><trkpt lat="40.228740" lon="-5.887790"><ele>1066.8</ele><time>2014-07-07T08:11:19Z</time></trkpt><trkpt lat="40.228780" lon="-5.887840"><ele>1064.7</ele><time>2014-07-07T08:11:36Z</time></trkpt><trkpt lat="40.228910" lon="-5.887990"><ele>1061.3</ele><time>2014-07-07T08:11:53Z</time></trkpt><trkpt lat="40.229090" lon="-5.888180"><ele>1058.6</ele><time>2014-07-07T08:12:10Z</time></trkpt><trkpt lat="40.229230" lon="-5.888340"><ele>1055.2</ele><time>2014-07-07T08:12:27Z</time></trkpt><trkpt lat="40.229260" lon="-5.888390"><ele>1053.7</ele><time>2014-07-07T08:12:44Z</time></trkpt><trkpt lat="40.229340" lon="-5.888560"><ele>1051.0</ele><time>2014-07-07T08:13:01Z</time></trkpt><trkpt lat="40.229350" lon="-5.888570"><ele>1051.0</ele><time>2014-07-07T08:13:18Z</time></trkpt><trkpt lat="40.229360" lon="-5.888720"><ele>1048.5</ele><time>2014-07-07T08:13:35Z</time></trkpt><trkpt lat="40.229350" lon="-5.888910"><ele>1046.7</ele><time>2014-07-07T08:13:52Z</time></trkpt><trkpt lat="40.229290" lon="-5.889060"><ele>1043.6</ele><time>2014-07-07T08:14:09Z</time></trkpt><trkpt lat="40.229330" lon="-5.889080"><ele>1042.7</ele><time>2014-07-07T08:14:26Z</time></trkpt><trkpt lat="40.229420" lon="-5.889030"><ele>1040.9</ele><time>2014-07-07T08:14:43Z</time></trkpt><trkpt lat="40.229610" lon="-5.888830"><ele>1038.5</ele><time>2014-07-07T08:15:00Z</time></trkpt><trkpt lat="40.229670" lon="-5.889090"><ele>1035.1</ele><time>2014-07-07T08:15:17Z</time></trkpt><trkpt lat="40.229750" lon="-5.889150"><ele>1033.0</ele><time>2014-07-07T08:15:34Z</time></trkpt><trkpt lat="40.229830" lon="-5.889230"><ele>1031.1</ele><time>2014-07-07T08:15:51Z</time></trkpt><trkpt lat="40.229900" lon="-5.889270"><ele>1028.4</ele><time>2014-07-07T08:16:08Z</time></trkpt><trkpt lat="40.229920" lon="-5.889240"><ele>1027.8</ele><time>2014-07-07T08:16:25Z</time></trkpt><trkpt lat="40.229970" lon="-5.889300"><ele>1026.3</ele><time>2014-07-07T08:16:42Z</time></trkpt><trkpt lat="40.230090" lon="-5.889470"><ele>1025.0</ele><time>2014-07-07T08:16:59Z</time></trkpt><trkpt lat="40.230320" lon="-5.889580"><ele>1024.4</ele><time>2014-07-07T08:17:16Z</time></trkpt><trkpt lat="40.230610" lon="-5.889730"><ele>1022.9</ele><time>2014-07-07T08:17:33Z</time></trkpt><trkpt lat="40.230740" lon="-5.889840"><ele>1021.1</ele><time>2014-07-07T08:17:50Z</time></trkpt><trkpt lat="40.230940" lon="-5.889970"><ele>1018.6</ele><time>2014-07-07T08:18:07Z</time></trkpt><trkpt lat="40.231090" lon="-5.890090"><ele>1015.3</ele><time>2014-07-07T08:18:24Z</time></trkpt><trkpt lat="40.231230" lon="-5.890220"><ele>1012.5</ele><time>2014-07-07T08:18:41Z</time></trkpt><trkpt lat="40.231340" lon="-5.890380"><ele>1009.2</ele><time>2014-07-07T08:18:58Z</time></trkpt><trkpt lat="40.231420" lon="-5.890600"><ele>1005.8</ele><time>2014-07-07T08:19:15Z</time></trkpt><trkpt lat="40.231430" lon="-5.890630"><ele>1004.6</ele><time>2014-07-07T08:19:32Z</time></trkpt><trkpt lat="40.231540" lon="-5.890810"><ele>1001.9</ele><time>2014-07-07T08:19:49Z</time></trkpt><trkpt lat="40.231670" lon="-5.890980"><ele>998.5</ele><time>2014-07-07T08:20:06Z</time></trkpt><trkpt lat="40.231800" lon="-5.891160"><ele>995.2</ele><time>2014-07-07T08:20:23Z</time></trkpt><trkpt lat="40.231930" lon="-5.891400"><ele>991.8</ele><time>2014-07-07T08:20:40Z</time></trkpt><trkpt lat="40.232050" lon="-5.891570"><ele>988.5</ele><time>2014-07-07T08:20:57Z</time></trkpt><trkpt lat="40.232170" lon="-5.891780"><ele>985.1</ele><time>2014-07-07T08:21:14Z</time></trkpt><trkpt lat="40.232300" lon="-5.891980"><ele>982.1</ele><time>2014-07-07T08:21:31Z</time></trkpt><trkpt lat="40.232390" lon="-5.892160"><ele>979.3</ele><time>2014-07-07T08:21:48Z</time></trkpt><trkpt lat="40.232520" lon="-5.892360"><ele>976.0</ele><time>2014-07-07T08:22:05Z</time></trkpt><trkpt lat="40.232650" lon="-5.892550"><ele>972.6</ele><time>2014-07-07T08:22:22Z</time></trkpt><trkpt lat="40.232730" lon="-5.892690"><ele>969.6</ele><time>2014-07-07T08:22:39Z</time></trkpt><trkpt lat="40.232860" lon="-5.892900"><ele>966.2</ele><time>2014-07-07T08:22:56Z</time></trkpt><trkpt lat="40.232880" lon="-5.892930"><ele>965.9</ele><time>2014-07-07T08:23:13Z</time></trkpt><trkpt lat="40.232990" lon="-5.893090"><ele>961.9</ele><time>2014-07-07T08:23:30Z</time></trkpt><trkpt lat="40.233180" lon="-5.893360"><ele>958.6</ele><time>2014-07-07T08:23:47Z</time></trkpt><trkpt lat="40.233330" lon="-5.893620"><ele>955.9</ele><time>2014-07-07T08:24:04Z</time></trkpt><trkpt lat="40.233440" lon="-5.893990"><ele>953.4</ele><time>2014-07-07T08:24:21Z</time></trkpt><trkpt lat="40.233440" lon="-5.894000"><ele>953.4</ele><time>2014-07-07T08:24:38Z</time></trkpt><trkpt lat="40.233420" lon="-5.894200"><ele>950.4</ele><time>2014-07-07T08:24:55Z</time></trkpt><trkpt lat="40.233420" lon="-5.894340"><ele>947.6</ele><time>2014-07-07T08:25:12Z</time></trkpt><trkpt lat="40.233400" lon="-5.894410"><ele>945.5</ele><time>2014-07-07T08:25:29Z</time></trkpt><trkpt lat="40.233420" lon="-5.894520"><ele>944.6</ele><time>2014-07-07T08:25:46Z</time></trkpt><trkpt lat="40.233620" lon="-5.894660"><ele>943.7</ele><time>2014-07-07T08:26:03Z</time></trkpt><trkpt lat="40.233890" lon="-5.894760"><ele>942.1</ele><time>2014-07-07T08:26:20Z</time></trkpt><trkpt lat="40.234070" lon="-5.894910"><ele>939.4</ele><time>2014-07-07T08:26:37Z</time></trkpt><trkpt lat="40.234180" lon="-5.895050"><ele>936.0</ele><time>2014-07-07T08:26:54Z</time></trkpt><trkpt lat="40.234260" lon="-5.895290"><ele>933.0</ele><time>2014-07-07T08:27:11Z</time></trkpt><trkpt lat="40.234250" lon="-5.895570"><ele>929.6</ele><time>2014-07-07T08:27:28Z</time></trkpt><trkpt lat="40.234200" lon="-5.895940"><ele>926.9</ele><time>2014-07-07T08:27:45Z</time></trkpt><trkpt lat="40.234330" lon="-5.896230"><ele>926.0</ele><time>2014-07-07T08:28:02Z</time></trkpt><trkpt lat="40.234440" lon="-5.896590"><ele>923.5</ele><time>2014-07-07T08:28:19Z</time></trkpt><trkpt lat="40.234540" lon="-5.896960"><ele>920.2</ele><time>2014-07-07T08:28:36Z</time></trkpt><trkpt lat="40.234560" lon="-5.897040"><ele>919.3</ele><time>2014-07-07T08:28:53Z</time></trkpt><trkpt lat="40.234690" lon="-5.897420"><ele>916.2</ele><time>2014-07-07T08:29:10Z</time></trkpt><trkpt lat="40.234800" lon="-5.897710"><ele>913.5</ele><time>2014-07-07T08:29:27Z</time></trkpt><trkpt lat="40.234890" lon="-5.897880"><ele>910.1</ele><time>2014-07-07T08:29:44Z</time></trkpt><trkpt lat="40.234960" lon="-5.898050"><ele>906.8</ele><time>2014-07-07T08:30:01Z</time></trkpt><trkpt lat="40.235030" lon="-5.898210"><ele>903.7</ele><time>2014-07-07T08:30:18Z</time></trkpt><trkpt lat="40.235200" lon="-5.898430"><ele>900.4</ele><time>2014-07-07T08:30:35Z</time></trkpt><trkpt lat="40.235240" lon="-5.898520"><ele>899.5</ele><time>2014-07-07T08:30:52Z</time></trkpt><trkpt lat="40.235260" lon="-5.898680"><ele>898.6</ele><time>2014-07-07T08:31:09Z</time></trkpt><trkpt lat="40.235260" lon="-5.898710"><ele>898.6</ele><time>2014-07-07T08:31:26Z</time></trkpt><trkpt lat="40.235310" lon="-5.898780"><ele>897.6</ele><time>2014-07-07T08:31:43Z</time></trkpt><trkpt lat="40.235320" lon="-5.898810"><ele>896.7</ele><time>2014-07-07T08:32:00Z</time></trkpt><trkpt lat="40.235430" lon="-5.898910"><ele>892.8</ele><time>2014-07-07T08:32:17Z</time></trkpt><trkpt lat="40.235470" lon="-5.898950"><ele>890.9</ele><time>2014-07-07T08:32:34Z</time></trkpt><trkpt lat="40.235560" lon="-5.899070"><ele>888.8</ele><time>2014-07-07T08:32:51Z</time></trkpt><trkpt lat="40.235600" lon="-5.899060"><ele>887.6</ele><time>2014-07-07T08:33:08Z</time></trkpt><trkpt lat="40.235660" lon="-5.898950"><ele>886.4</ele><time>2014-07-07T08:33:25Z</time></trkpt><trkpt lat="40.235730" lon="-5.899010"><ele>884.5</ele><time>2014-07-07T08:33:42Z</time></trkpt><trkpt lat="40.235770" lon="-5.899180"><ele>881.8</ele><time>2014-07-07T08:33:59Z</time></trkpt><trkpt lat="40.235840" lon="-5.899380"><ele>878.7</ele><time>2014-07-07T08:34:16Z</time></trkpt><trkpt lat="40.235940" lon="-5.899560"><ele>875.4</ele><time>2014-07-07T08:34:33Z</time></trkpt><trkpt lat="40.235950" lon="-5.899560"><ele>875.1</ele><time>2014-07-07T08:34:50Z</time></trkpt><trkpt lat="40.236010" lon="-5.899520"><ele>873.9</ele><time>2014-07-07T08:35:07Z</time></trkpt><trkpt lat="40.236180" lon="-5.899280"><ele>870.2</ele><time>2014-07-07T08:35:24Z</time></trkpt><trkpt lat="40.236220" lon="-5.899020"><ele>867.2</ele><time>2014-07-07T08:35:41Z</time></trkpt><trkpt lat="40.236230" lon="-5.898870"><ele>866.2</ele><time>2014-07-07T08:35:58Z</time></trkpt><trkpt lat="40.236300" lon="-5.898940"><ele>863.8</ele><time>2014-07-07T08:36:15Z</time></trkpt><trkpt lat="40.236370" lon="-5.899220"><ele>860.5</ele><time>2014-07-07T08:36:32Z</time></trkpt><trkpt lat="40.236450" lon="-5.899460"><ele>857.7</ele><time>2014-07-07T08:36:49Z</time></trkpt><trkpt lat="40.236550" lon="-5.899760"><ele>854.4</ele><time>2014-07-07T08:37:06Z</time></trkpt><trkpt lat="40.236690" lon="-5.899930"><ele>851.3</ele><time>2014-07-07T08:37:23Z</time></trkpt><trkpt lat="40.236970" lon="-5.900080"><ele>848.0</ele><time>2014-07-07T08:37:40Z</time></trkpt><trkpt lat="40.237070" lon="-5.900320"><ele>845.2</ele><time>2014-07-07T08:37:57Z</time></trkpt><trkpt lat="40.237020" lon="-5.900660"><ele>842.8</ele><time>2014-07-07T08:38:14Z</time></trkpt><trkpt lat="40.237020" lon="-5.901070"><ele>841.2</ele><time>2014-07-07T08:38:31Z</time></trkpt><trkpt lat="40.237040" lon="-5.901390"><ele>840.9</ele><time>2014-07-07T08:38:48Z</time></trkpt><trkpt lat="40.237170" lon="-5.901730"><ele>839.7</ele><time>2014-07-07T08:39:05Z</time></trkpt><trkpt lat="40.237250" lon="-5.902060"><ele>837.0</ele><time>2014-07-07T08:39:22Z</time></trkpt><trkpt lat="40.237440" lon="-5.902440"><ele>836.1</ele><time>2014-07-07T08:39:39Z</time></trkpt><trkpt lat="40.237630" lon="-5.902740"><ele>834.2</ele><time>2014-07-07T08:39:56Z</time></trkpt><trkpt lat="40.237820" lon="-5.902890"><ele>832.1</ele><time>2014-07-07T08:40:13Z</time></trkpt><trkpt lat="40.238070" lon="-5.903220"><ele>829.7</ele><time>2014-07-07T08:40:30Z</time></trkpt><trkpt lat="40.238120" lon="-5.903410"><ele>826.3</ele><time>2014-07-07T08:40:47Z</time></trkpt><trkpt lat="40.238260" lon="-5.903600"><ele>823.0</ele><time>2014-07-07T08:41:04Z</time></trkpt><trkpt lat="40.238390" lon="-5.903700"><ele>820.2</ele><time>2014-07-07T08:41:21Z</time></trkpt><trkpt lat="40.238400" lon="-5.903720"><ele>820.2</ele><time>2014-07-07T08:41:38Z</time></trkpt><trkpt lat="40.238510" lon="-5.903930"><ele>816.9</ele><time>2014-07-07T08:41:55Z</time></trkpt><trkpt lat="40.238530" lon="-5.904040"><ele>815.3</ele><time>2014-07-07T08:42:12Z</time></trkpt><trkpt lat="40.238670" lon="-5.904200"><ele>812.0</ele><time>2014-07-07T08:42:29Z</time></trkpt><trkpt lat="40.238800" lon="-5.904330"><ele>808.6</ele><time>2014-07-07T08:42:46Z</time></trkpt><trkpt lat="40.238930" lon="-5.904560"><ele>805.6</ele><time>2014-07-07T08:43:03Z</time></trkpt><trkpt lat="40.238990" lon="-5.904840"><ele>802.2</ele><time>2014-07-07T08:43:20Z</time></trkpt><trkpt lat="40.239070" lon="-5.905030"><ele>799.5</ele><time>2014-07-07T08:43:37Z</time></trkpt><trkpt lat="40.239170" lon="-5.905200"><ele>796.7</ele><time>2014-07-07T08:43:54Z</time></trkpt><trkpt lat="40.239220" lon="-5.905280"><ele>794.6</ele><time>2014-07-07T08:44:11Z</time></trkpt><trkpt lat="40.239300" lon="-5.905490"><ele>791.0</ele><time>2014-07-07T08:44:28Z</time></trkpt><trkpt lat="40.239420" lon="-5.905750"><ele>787.9</ele><time>2014-07-07T08:44:45Z</time></trkpt><trkpt lat="40.239430" lon="-5.905820"><ele>787.6</ele><time>2014-07-07T08:45:02Z</time></trkpt><trkpt lat="40.239500" lon="-5.905890"><ele>787.0</ele><time>2014-07-07T08:45:19Z</time></trkpt><trkpt lat="40.239680" lon="-5.906160"><ele>786.1</ele><time>2014-07-07T08:45:36Z</time></trkpt><trkpt lat="40.239830" lon="-5.906500"><ele>783.0</ele><time>2014-07-07T08:45:53Z</time></trkpt><trkpt lat="40.240010" lon="-5.906750"><ele>780.3</ele><time>2014-07-07T08:46:10Z</time></trkpt><trkpt lat="40.240200" lon="-5.907090"><ele>777.2</ele><time>2014-07-07T08:46:27Z</time></trkpt><trkpt lat="40.240350" lon="-5.907310"><ele>775.4</ele><time>2014-07-07T08:46:44Z</time></trkpt><trkpt lat="40.240450" lon="-5.907540"><ele>772.7</ele><time>2014-07-07T08:47:01Z</time></trkpt><trkpt lat="40.240570" lon="-5.907760"><ele>769.3</ele><time>2014-07-07T08:47:18Z</time></trkpt><trkpt lat="40.240710" lon="-5.907920"><ele>766.3</ele><time>2014-07-07T08:47:35Z</time></trkpt><trkpt lat="40.240860" lon="-5.908140"><ele>762.9</ele><time>2014-07-07T08:47:52Z</time></trkpt><trkpt lat="40.240970" lon="-5.908270"><ele>759.6</ele><time>2014-07-07T08:48:09Z</time></trkpt><trkpt lat="40.241040" lon="-5.908390"><ele>757.1</ele><time>2014-07-07T08:48:26Z</time></trkpt><trkpt lat="40.241160" lon="-5.908530"><ele>753.8</ele><time>2014-07-07T08:48:43Z</time></trkpt><trkpt lat="40.241280" lon="-5.908680"><ele>751.0</ele><time>2014-07-07T08:49:00Z</time></trkpt><trkpt lat="40.241340" lon="-5.908760"><ele>748.9</ele><time>2014-07-07T08:49:17Z</time></trkpt><trkpt lat="40.241500" lon="-5.908970"><ele>745.5</ele><time>2014-07-07T08:49:34Z</time></trkpt><trkpt lat="40.241700" lon="-5.909250"><ele>742.2</ele><time>2014-07-07T08:49:51Z</time></trkpt><trkpt lat="40.241780" lon="-5.909380"><ele>741.3</ele><time>2014-07-07T08:50:08Z</time></trkpt><trkpt lat="40.241860" lon="-5.909590"><ele>739.7</ele><time>2014-07-07T08:50:25Z</time></trkpt><trkpt lat="40.242070" lon="-5.909940"><ele>737.0</ele><time>2014-07-07T08:50:42Z</time></trkpt><trkpt lat="40.242230" lon="-5.910340"><ele>735.5</ele><time>2014-07-07T08:50:59Z</time></trkpt><trkpt lat="40.242380" lon="-5.910790"><ele>732.1</ele><time>2014-07-07T08:51:16Z</time></trkpt><trkpt lat="40.242470" lon="-5.911180"><ele>730.3</ele><time>2014-07-07T08:51:33Z</time></trkpt><trkpt lat="40.242600" lon="-5.911530"><ele>728.8</ele><time>2014-07-07T08:51:50Z</time></trkpt><trkpt lat="40.242730" lon="-5.911880"><ele>726.0</ele><time>2014-07-07T08:52:07Z</time></trkpt><trkpt lat="40.242920" lon="-5.912330"><ele>725.1</ele><time>2014-07-07T08:52:24Z</time></trkpt><trkpt lat="40.243100" lon="-5.912600"><ele>721.8</ele><time>2014-07-07T08:52:41Z</time></trkpt><trkpt lat="40.243310" lon="-5.912870"><ele>718.1</ele><time>2014-07-07T08:52:58Z</time></trkpt><trkpt lat="40.243420" lon="-5.913110"><ele>714.8</ele><time>2014-07-07T08:53:15Z</time></trkpt><trkpt lat="40.243580" lon="-5.913440"><ele>712.0</ele><time>2014-07-07T08:53:32Z</time></trkpt><trkpt lat="40.243770" lon="-5.913720"><ele>709.3</ele><time>2014-07-07T08:53:49Z</time></trkpt><trkpt lat="40.243870" lon="-5.913870"><ele>705.6</ele><time>2014-07-07T08:54:06Z</time></trkpt><trkpt lat="40.244000" lon="-5.914030"><ele>702.9</ele><time>2014-07-07T08:54:23Z</time></trkpt><trkpt lat="40.244110" lon="-5.914210"><ele>699.5</ele><time>2014-07-07T08:54:40Z</time></trkpt><trkpt lat="40.244280" lon="-5.914370"><ele>696.2</ele><time>2014-07-07T08:54:57Z</time></trkpt><trkpt lat="40.244430" lon="-5.914610"><ele>693.1</ele><time>2014-07-07T08:55:14Z</time></trkpt><trkpt lat="40.244580" lon="-5.914870"><ele>689.8</ele><time>2014-07-07T08:55:31Z</time></trkpt><trkpt lat="40.244750" lon="-5.915220"><ele>687.6</ele><time>2014-07-07T08:55:48Z</time></trkpt><trkpt lat="40.244810" lon="-5.915450"><ele>684.3</ele><time>2014-07-07T08:56:05Z</time></trkpt><trkpt lat="40.244810" lon="-5.915460"><ele>687.0</ele><time>2014-07-07T08:56:22Z</time></trkpt><trkpt lat="40.244910" lon="-5.915800"><ele>685.5</ele><time>2014-07-07T08:56:39Z</time></trkpt><trkpt lat="40.245100" lon="-5.916160"><ele>682.8</ele><time>2014-07-07T08:56:56Z</time></trkpt><trkpt lat="40.245210" lon="-5.916330"><ele>679.4</ele><time>2014-07-07T08:57:13Z</time></trkpt><trkpt lat="40.245250" lon="-5.916400"><ele>678.5</ele><time>2014-07-07T08:57:30Z</time></trkpt><trkpt lat="40.245250" lon="-5.916440"><ele>677.9</ele><time>2014-07-07T08:57:47Z</time></trkpt><trkpt lat="40.245260" lon="-5.916530"><ele>677.3</ele><time>2014-07-07T08:58:04Z</time></trkpt><trkpt lat="40.245260" lon="-5.916530"><ele>677.9</ele><time>2014-07-07T08:58:21Z</time></trkpt><trkpt lat="40.245410" lon="-5.916880"><ele>675.1</ele><time>2014-07-07T08:58:38Z</time></trkpt><trkpt lat="40.245580" lon="-5.917290"><ele>672.1</ele><time>2014-07-07T08:58:55Z</time></trkpt><trkpt lat="40.245760" lon="-5.917610"><ele>668.7</ele><time>2014-07-07T08:59:12Z</time></trkpt><trkpt lat="40.245890" lon="-5.917920"><ele>665.4</ele><time>2014-07-07T08:59:29Z</time></trkpt><trkpt lat="40.246050" lon="-5.918300"><ele>662.6</ele><time>2014-07-07T08:59:46Z</time></trkpt><trkpt lat="40.246280" lon="-5.918430"><ele>660.2</ele><time>2014-07-07T09:00:03Z</time></trkpt><trkpt lat="40.246410" lon="-5.918370"><ele>658.1</ele><time>2014-07-07T09:00:20Z</time></trkpt><trkpt lat="40.246520" lon="-5.918270"><ele>657.8</ele><time>2014-07-07T09:00:37Z</time></trkpt><trkpt lat="40.246630" lon="-5.918270"><ele>655.6</ele><time>2014-07-07T09:00:54Z</time></trkpt><trkpt lat="40.246850" lon="-5.918540"><ele>653.8</ele><time>2014-07-07T09:01:11Z</time></trkpt><trkpt lat="40.246960" lon="-5.918840"><ele>652.3</ele><time>2014-07-07T09:01:28Z</time></trkpt><trkpt lat="40.247120" lon="-5.919170"><ele>651.4</ele><time>2014-07-07T09:01:45Z</time></trkpt><trkpt lat="40.247350" lon="-5.919440"><ele>649.5</ele><time>2014-07-07T09:02:02Z</time></trkpt></trkseg></trk></gpx>